<?xml version="1.0" encoding="UTF-8" standalone="no" ?><gpx xmlns="http://www.topografix.com/GPX/1/1" xmlns:gpxx="http://www.garmin.com/xmlschemas/GpxExtensions/v3" xmlns:wptx1="http://www.garmin.com/xmlschemas/WaypointExtension/v1" xmlns:gpxtpx="http://www.garmin.com/xmlschemas/TrackPointExtension/v1" creator="Astro 320" version="1.1" xmlns:xsi="http://www.w3.org/2001/XMLSchema-instance" xsi:schemaLocation="http://www.topografix.com/GPX/1/1 http://www.topografix.com/GPX/1/1/gpx.xsd http://www.garmin.com/xmlschemas/GpxExtensions/v3 http://www8.garmin.com/xmlschemas/GpxExtensionsv3.xsd http://www.garmin.com/xmlschemas/WaypointExtension/v1 http://www8.garmin.com/xmlschemas/WaypointExtensionv1.xsd http://www.garmin.com/xmlschemas/TrackPointExtension/v1 http://www.garmin.com/xmlschemas/TrackPointExtensionv1.xsd"><metadata><link href="http://www.garmin.com"><text>Garmin International</text></link><time>2026-09-01T02:47:13Z</time></metadata><trk><name>2026-09-01 05:47:11</name><extensions><gpxx:TrackExtension><gpxx:DisplayColor>Blue</gpxx:DisplayColor></gpxx:TrackExtension></extensions><trkseg><trkpt lat="59.4547926821" lon="31.0903436691"><ele>56.86</ele><time>2026-08-31T21:32:25Z</time></trkpt><trkpt lat="59.4547835458" lon="31.0903721675"><ele>56.86</ele><time>2026-08-31T21:32:48Z</time></trkpt><trkpt lat="59.4547723141" lon="31.0903513804"><ele>56.86</ele><time>2026-08-31T21:33:00Z</time></trkpt><trkpt lat="59.4547763374" lon="31.0903801303"><ele>56.86</ele><time>2026-08-31T21:33:16Z</time></trkpt><trkpt lat="59.4547848869" lon="31.0903937090"><ele>56.86</ele><time>2026-08-31T21:33:35Z</time></trkpt><trkpt lat="59.4547973759" lon="31.0904154181"><ele>56.86</ele><time>2026-08-31T21:33:52Z</time></trkpt><trkpt lat="59.4548307359" lon="31.0904667992"><ele>56.86</ele><time>2026-08-31T21:33:57Z</time></trkpt><trkpt lat="59.4548529480" lon="31.0904952977"><ele>56.86</ele><time>2026-08-31T21:33:59Z</time></trkpt><trkpt lat="59.4549364317" lon="31.0906176735"><ele>56.86</ele><time>2026-08-31T21:34:13Z</time></trkpt><trkpt lat="59.4551562052" lon="31.0908296518"><ele>56.86</ele><time>2026-08-31T21:34:31Z</time></trkpt><trkpt lat="59.4552798383" lon="31.0909894947"><ele>56.86</ele><time>2026-08-31T21:34:46Z</time></trkpt><trkpt lat="59.4552938361" lon="31.0910111200"><ele>56.86</ele><time>2026-08-31T21:34:48Z</time></trkpt><trkpt lat="59.4553015474" lon="31.0910251178"><ele>56.86</ele><time>2026-08-31T21:34:49Z</time></trkpt><trkpt lat="59.4553113542" lon="31.0910359304"><ele>56.86</ele><time>2026-08-31T21:34:50Z</time></trkpt><trkpt lat="59.4554398488" lon="31.0911823623"><ele>56.86</ele><time>2026-08-31T21:35:03Z</time></trkpt><trkpt lat="59.4554959238" lon="31.0912185721"><ele>56.86</ele><time>2026-08-31T21:35:14Z</time></trkpt><trkpt lat="59.4556745421" lon="31.0914340708"><ele>56.86</ele><time>2026-08-31T21:35:28Z</time></trkpt><trkpt lat="59.4558491372" lon="31.0916276090"><ele>56.86</ele><time>2026-08-31T21:35:43Z</time></trkpt><trkpt lat="59.4560290128" lon="31.0918460414"><ele>56.86</ele><time>2026-08-31T21:36:00Z</time></trkpt><trkpt lat="59.4560717605" lon="31.0918814968"><ele>56.86</ele><time>2026-08-31T21:36:06Z</time></trkpt><trkpt lat="59.4560872670" lon="31.0919186287"><ele>56.86</ele><time>2026-08-31T21:36:16Z</time></trkpt><trkpt lat="59.4560969900" lon="31.0919352248"><ele>56.86</ele><time>2026-08-31T21:36:17Z</time></trkpt><trkpt lat="59.4562330283" lon="31.0921417549"><ele>56.37</ele><time>2026-08-31T21:36:33Z</time></trkpt><trkpt lat="59.4563174341" lon="31.0922465287"><ele>56.37</ele><time>2026-08-31T21:36:43Z</time></trkpt><trkpt lat="59.4563600980" lon="31.0923316050"><ele>56.37</ele><time>2026-08-31T21:36:49Z</time></trkpt><trkpt lat="59.4564251415" lon="31.0925249755"><ele>55.89</ele><time>2026-08-31T21:37:00Z</time></trkpt><trkpt lat="59.4564650394" lon="31.0926629417"><ele>55.89</ele><time>2026-08-31T21:37:07Z</time></trkpt><trkpt lat="59.4565374590" lon="31.0928834695"><ele>55.89</ele><time>2026-08-31T21:37:18Z</time></trkpt><trkpt lat="59.4565439131" lon="31.0929303244"><ele>55.89</ele><time>2026-08-31T21:37:20Z</time></trkpt><trkpt lat="59.4566543028" lon="31.0932328273"><ele>55.89</ele><time>2026-08-31T21:37:36Z</time></trkpt><trkpt lat="59.4566901773" lon="31.0933447257"><ele>55.89</ele><time>2026-08-31T21:37:43Z</time></trkpt><trkpt lat="59.4567377865" lon="31.0934726335"><ele>55.89</ele><time>2026-08-31T21:37:50Z</time></trkpt><trkpt lat="59.4568324182" lon="31.0937287845"><ele>55.89</ele><time>2026-08-31T21:38:04Z</time></trkpt><trkpt lat="59.4568478409" lon="31.0937764775"><ele>55.89</ele><time>2026-08-31T21:38:07Z</time></trkpt><trkpt lat="59.4569606613" lon="31.0940637253"><ele>55.89</ele><time>2026-08-31T21:38:22Z</time></trkpt><trkpt lat="59.4570080191" lon="31.0942453612"><ele>55.89</ele><time>2026-08-31T21:38:32Z</time></trkpt><trkpt lat="59.4570246991" lon="31.0943340417"><ele>55.89</ele><time>2026-08-31T21:38:36Z</time></trkpt><trkpt lat="59.4570507668" lon="31.0944408271"><ele>55.89</ele><time>2026-08-31T21:38:41Z</time></trkpt><trkpt lat="59.4570847135" lon="31.0945451818"><ele>55.89</ele><time>2026-08-31T21:38:47Z</time></trkpt><trkpt lat="59.4571573846" lon="31.0947939567"><ele>55.89</ele><time>2026-08-31T21:39:00Z</time></trkpt><trkpt lat="59.4572474901" lon="31.0950956214"><ele>55.89</ele><time>2026-08-31T21:39:15Z</time></trkpt><trkpt lat="59.4573334884" lon="31.0953718051"><ele>55.89</ele><time>2026-08-31T21:39:29Z</time></trkpt><trkpt lat="59.4574090093" lon="31.0956277885"><ele>55.89</ele><time>2026-08-31T21:39:42Z</time></trkpt><trkpt lat="59.4574865419" lon="31.0958725400"><ele>55.89</ele><time>2026-08-31T21:39:56Z</time></trkpt><trkpt lat="59.4575584587" lon="31.0960835963"><ele>55.89</ele><time>2026-08-31T21:40:07Z</time></trkpt><trkpt lat="59.4576502405" lon="31.0963291861"><ele>55.89</ele><time>2026-08-31T21:40:21Z</time></trkpt><trkpt lat="59.4577496499" lon="31.0967260692"><ele>55.89</ele><time>2026-08-31T21:40:40Z</time></trkpt><trkpt lat="59.4578527473" lon="31.0970605910"><ele>55.89</ele><time>2026-08-31T21:40:58Z</time></trkpt><trkpt lat="59.4579013623" lon="31.0972832981"><ele>55.89</ele><time>2026-08-31T21:41:10Z</time></trkpt><trkpt lat="59.4579885341" lon="31.0974967852"><ele>55.89</ele><time>2026-08-31T21:41:23Z</time></trkpt><trkpt lat="59.4580058008" lon="31.0975535307"><ele>55.89</ele><time>2026-08-31T21:41:26Z</time></trkpt><trkpt lat="59.4580399152" lon="31.0976739787"><ele>55.89</ele><time>2026-08-31T21:41:42Z</time></trkpt><trkpt lat="59.4580927212" lon="31.0978079215"><ele>55.41</ele><time>2026-08-31T21:41:50Z</time></trkpt><trkpt lat="59.4581762888" lon="31.0980965104"><ele>55.41</ele><time>2026-08-31T21:42:07Z</time></trkpt><trkpt lat="59.4582554139" lon="31.0983743705"><ele>55.41</ele><time>2026-08-31T21:42:22Z</time></trkpt><trkpt lat="59.4583642948" lon="31.0987171903"><ele>55.41</ele><time>2026-08-31T21:42:39Z</time></trkpt><trkpt lat="59.4584580883" lon="31.0989753529"><ele>54.93</ele><time>2026-08-31T21:42:53Z</time></trkpt><trkpt lat="59.4584870059" lon="31.0990193579"><ele>54.93</ele><time>2026-08-31T21:42:56Z</time></trkpt><trkpt lat="59.4585092179" lon="31.0991114751"><ele>54.93</ele><time>2026-08-31T21:43:01Z</time></trkpt><trkpt lat="59.4585859124" lon="31.0993586574"><ele>54.93</ele><time>2026-08-31T21:43:13Z</time></trkpt><trkpt lat="59.4586883392" lon="31.0995732341"><ele>54.93</ele><time>2026-08-31T21:43:28Z</time></trkpt><trkpt lat="59.4587873295" lon="31.0998864658"><ele>54.45</ele><time>2026-08-31T21:43:44Z</time></trkpt><trkpt lat="59.4589158241" lon="31.1001183093"><ele>54.45</ele><time>2026-08-31T21:44:00Z</time></trkpt><trkpt lat="59.4589900039" lon="31.1002997775"><ele>54.45</ele><time>2026-08-31T21:44:14Z</time></trkpt><trkpt lat="59.4590674527" lon="31.1004787311"><ele>54.45</ele><time>2026-08-31T21:44:24Z</time></trkpt><trkpt lat="59.4591508526" lon="31.1006915476"><ele>54.45</ele><time>2026-08-31T21:44:35Z</time></trkpt><trkpt lat="59.4592391979" lon="31.1009626184"><ele>54.45</ele><time>2026-08-31T21:44:50Z</time></trkpt><trkpt lat="59.4593519345" lon="31.1012269836"><ele>54.45</ele><time>2026-08-31T21:45:07Z</time></trkpt><trkpt lat="59.4593852945" lon="31.1012222059"><ele>54.45</ele><time>2026-08-31T21:45:19Z</time></trkpt><trkpt lat="59.4593537785" lon="31.1012320127"><ele>54.45</ele><time>2026-08-31T21:45:30Z</time></trkpt><trkpt lat="59.4593424629" lon="31.1012400594"><ele>53.97</ele><time>2026-08-31T21:46:02Z</time></trkpt><trkpt lat="59.4593425468" lon="31.1012452561"><ele>53.97</ele><time>2026-08-31T21:46:22Z</time></trkpt><trkpt lat="59.4594303891" lon="31.1014596652"><ele>53.49</ele><time>2026-08-31T21:46:36Z</time></trkpt><trkpt lat="59.4594326522" lon="31.1014707293"><ele>53.49</ele><time>2026-08-31T21:46:37Z</time></trkpt><trkpt lat="59.4594701193" lon="31.1015821248"><ele>53.49</ele><time>2026-08-31T21:46:44Z</time></trkpt><trkpt lat="59.4595893100" lon="31.1017968692"><ele>53.49</ele><time>2026-08-31T21:47:00Z</time></trkpt><trkpt lat="59.4596269447" lon="31.1019225977"><ele>53.49</ele><time>2026-08-31T21:47:07Z</time></trkpt><trkpt lat="59.4597255997" lon="31.1021275353"><ele>53.49</ele><time>2026-08-31T21:47:21Z</time></trkpt><trkpt lat="59.4597844407" lon="31.1023494042"><ele>53.49</ele><time>2026-08-31T21:47:33Z</time></trkpt><trkpt lat="59.4599115103" lon="31.1025697645"><ele>53.49</ele><time>2026-08-31T21:47:48Z</time></trkpt><trkpt lat="59.4599232450" lon="31.1025745422"><ele>53.49</ele><time>2026-08-31T21:47:49Z</time></trkpt><trkpt lat="59.4599477202" lon="31.1025798228"><ele>53.49</ele><time>2026-08-31T21:47:51Z</time></trkpt><trkpt lat="59.4600034598" lon="31.1025123484"><ele>53.49</ele><time>2026-08-31T21:47:57Z</time></trkpt><trkpt lat="59.4600490574" lon="31.1024799943"><ele>53.49</ele><time>2026-08-31T21:48:10Z</time></trkpt><trkpt lat="59.4600504823" lon="31.1023518350"><ele>53.97</ele><time>2026-08-31T21:48:23Z</time></trkpt><trkpt lat="59.4600545894" lon="31.1022478994"><ele>53.97</ele><time>2026-08-31T21:48:29Z</time></trkpt><trkpt lat="59.4600726943" lon="31.1021414492"><ele>53.97</ele><time>2026-08-31T21:48:34Z</time></trkpt><trkpt lat="59.4601602852" lon="31.1019811034"><ele>53.97</ele><time>2026-08-31T21:48:44Z</time></trkpt><trkpt lat="59.4601935614" lon="31.1019194126"><ele>53.97</ele><time>2026-08-31T21:48:48Z</time></trkpt><trkpt lat="59.4602169469" lon="31.1018101964"><ele>53.97</ele><time>2026-08-31T21:48:58Z</time></trkpt><trkpt lat="59.4602042064" lon="31.1015968770"><ele>53.97</ele><time>2026-08-31T21:49:10Z</time></trkpt><trkpt lat="59.4602176175" lon="31.1014522053"><ele>53.97</ele><time>2026-08-31T21:49:19Z</time></trkpt><trkpt lat="59.4602160249" lon="31.1013278179"><ele>53.97</ele><time>2026-08-31T21:49:27Z</time></trkpt><trkpt lat="59.4602392428" lon="31.1010784563"><ele>53.97</ele><time>2026-08-31T21:49:38Z</time></trkpt><trkpt lat="59.4602694176" lon="31.1008668132"><ele>53.97</ele><time>2026-08-31T21:49:50Z</time></trkpt><trkpt lat="59.4602823257" lon="31.1008001771"><ele>53.97</ele><time>2026-08-31T21:49:54Z</time></trkpt><trkpt lat="59.4602916297" lon="31.1007591896"><ele>53.49</ele><time>2026-08-31T21:49:57Z</time></trkpt><trkpt lat="59.4603362214" lon="31.1005753744"><ele>53.49</ele><time>2026-08-31T21:50:10Z</time></trkpt><trkpt lat="59.4603360537" lon="31.1005762964"><ele>53.49</ele><time>2026-08-31T21:50:11Z</time></trkpt><trkpt lat="59.4603604451" lon="31.1004045513"><ele>54.93</ele><time>2026-08-31T21:50:24Z</time></trkpt><trkpt lat="59.4603633787" lon="31.1003901344"><ele>54.93</ele><time>2026-08-31T21:50:25Z</time></trkpt><trkpt lat="59.4603679888" lon="31.1003259290"><ele>54.93</ele><time>2026-08-31T21:50:28Z</time></trkpt><trkpt lat="59.4604228903" lon="31.1000582110"><ele>54.45</ele><time>2026-08-31T21:50:45Z</time></trkpt><trkpt lat="59.4604943879" lon="31.0998893157"><ele>54.45</ele><time>2026-08-31T21:50:59Z</time></trkpt><trkpt lat="59.4605707470" lon="31.0996969510"><ele>54.45</ele><time>2026-08-31T21:51:12Z</time></trkpt><trkpt lat="59.4606333598" lon="31.0995946918"><ele>54.45</ele><time>2026-08-31T21:51:24Z</time></trkpt><trkpt lat="59.4607295003" lon="31.0994973779"><ele>54.45</ele><time>2026-08-31T21:51:38Z</time></trkpt><trkpt lat="59.4607714936" lon="31.0993812047"><ele>54.45</ele><time>2026-08-31T21:51:46Z</time></trkpt><trkpt lat="59.4608198572" lon="31.0993094556"><ele>54.45</ele><time>2026-08-31T21:51:52Z</time></trkpt><trkpt lat="59.4609023351" lon="31.0990684759"><ele>54.45</ele><time>2026-08-31T21:52:07Z</time></trkpt><trkpt lat="59.4609672949" lon="31.0988824815"><ele>54.93</ele><time>2026-08-31T21:52:22Z</time></trkpt><trkpt lat="59.4609740842" lon="31.0988495406"><ele>54.93</ele><time>2026-08-31T21:52:35Z</time></trkpt><trkpt lat="59.4609684683" lon="31.0988279153"><ele>54.93</ele><time>2026-08-31T21:52:37Z</time></trkpt><trkpt lat="59.4609384611" lon="31.0987520590"><ele>54.93</ele><time>2026-08-31T21:52:41Z</time></trkpt><trkpt lat="59.4609065261" lon="31.0986310244"><ele>54.45</ele><time>2026-08-31T21:52:54Z</time></trkpt><trkpt lat="59.4609311689" lon="31.0986484587"><ele>55.41</ele><time>2026-08-31T21:53:08Z</time></trkpt><trkpt lat="59.4609425683" lon="31.0987180285"><ele>55.41</ele><time>2026-08-31T21:53:24Z</time></trkpt><trkpt lat="59.4609604217" lon="31.0987818986"><ele>55.41</ele><time>2026-08-31T21:53:36Z</time></trkpt><trkpt lat="59.4609641097" lon="31.0988398176"><ele>55.41</ele><time>2026-08-31T21:53:47Z</time></trkpt><trkpt lat="59.4609621819" lon="31.0988425836"><ele>54.93</ele><time>2026-08-31T21:54:13Z</time></trkpt><trkpt lat="59.4609598350" lon="31.0988399852"><ele>54.93</ele><time>2026-08-31T21:54:40Z</time></trkpt><trkpt lat="59.4609616790" lon="31.0988447629"><ele>54.93</ele><time>2026-08-31T21:55:16Z</time></trkpt><trkpt lat="59.4609561469" lon="31.0988581739"><ele>54.93</ele><time>2026-08-31T21:55:43Z</time></trkpt><trkpt lat="59.4609579910" lon="31.0988647956"><ele>54.93</ele><time>2026-08-31T21:56:08Z</time></trkpt><trkpt lat="59.4609637745" lon="31.0988656338"><ele>54.93</ele><time>2026-08-31T21:56:34Z</time></trkpt><trkpt lat="59.4609641936" lon="31.0988642089"><ele>54.45</ele><time>2026-08-31T21:57:11Z</time></trkpt><trkpt lat="59.4609672949" lon="31.0988642927"><ele>54.45</ele><time>2026-08-31T21:57:38Z</time></trkpt><trkpt lat="59.4609724078" lon="31.0988664720"><ele>54.45</ele><time>2026-08-31T21:58:07Z</time></trkpt><trkpt lat="59.4609766826" lon="31.0988651309"><ele>54.45</ele><time>2026-08-31T21:58:29Z</time></trkpt><trkpt lat="59.4609700609" lon="31.0988825653"><ele>54.45</ele><time>2026-08-31T21:58:54Z</time></trkpt><trkpt lat="59.4609694742" lon="31.0988851637"><ele>54.45</ele><time>2026-08-31T21:59:21Z</time></trkpt><trkpt lat="59.4609660376" lon="31.0988873430"><ele>54.45</ele><time>2026-08-31T21:59:50Z</time></trkpt><trkpt lat="59.4609657023" lon="31.0988873430"><ele>54.45</ele><time>2026-08-31T22:00:14Z</time></trkpt><trkpt lat="59.4609609246" lon="31.0988976527"><ele>54.45</ele><time>2026-08-31T22:00:46Z</time></trkpt><trkpt lat="59.4609525427" lon="31.0989136621"><ele>54.45</ele><time>2026-08-31T22:01:17Z</time></trkpt><trkpt lat="59.4609504472" lon="31.0989103094"><ele>54.45</ele><time>2026-08-31T22:01:47Z</time></trkpt><trkpt lat="59.4609492738" lon="31.0989146680"><ele>54.45</ele><time>2026-08-31T22:02:17Z</time></trkpt><trkpt lat="59.4609475974" lon="31.0989167634"><ele>53.49</ele><time>2026-08-31T22:02:50Z</time></trkpt><trkpt lat="59.4609460048" lon="31.0989230499"><ele>53.49</ele><time>2026-08-31T22:03:23Z</time></trkpt><trkpt lat="59.4609527942" lon="31.0989214573"><ele>53.49</ele><time>2026-08-31T22:03:45Z</time></trkpt><trkpt lat="59.4609603379" lon="31.0989284143"><ele>53.49</ele><time>2026-08-31T22:04:09Z</time></trkpt><trkpt lat="59.4609679654" lon="31.0989258997"><ele>53.01</ele><time>2026-08-31T22:04:35Z</time></trkpt><trkpt lat="59.4609751739" lon="31.0989193618"><ele>53.01</ele><time>2026-08-31T22:04:48Z</time></trkpt><trkpt lat="59.4610361103" lon="31.0988971498"><ele>53.01</ele><time>2026-08-31T22:05:01Z</time></trkpt><trkpt lat="59.4610474259" lon="31.0989119858"><ele>53.01</ele><time>2026-08-31T22:05:17Z</time></trkpt><trkpt lat="59.4610678777" lon="31.0989854112"><ele>53.01</ele><time>2026-08-31T22:05:28Z</time></trkpt><trkpt lat="59.4611384533" lon="31.0990995727"><ele>53.01</ele><time>2026-08-31T22:05:42Z</time></trkpt><trkpt lat="59.4612209313" lon="31.0991693102"><ele>53.01</ele><time>2026-08-31T22:05:56Z</time></trkpt><trkpt lat="59.4612698816" lon="31.0992356949"><ele>53.01</ele><time>2026-08-31T22:06:07Z</time></trkpt><trkpt lat="59.4613110367" lon="31.0993316676"><ele>53.01</ele><time>2026-08-31T22:06:18Z</time></trkpt><trkpt lat="59.4613765832" lon="31.0993888322"><ele>53.01</ele><time>2026-08-31T22:06:31Z</time></trkpt><trkpt lat="59.4614207558" lon="31.0993497726"><ele>53.01</ele><time>2026-08-31T22:06:45Z</time></trkpt><trkpt lat="59.4614503440" lon="31.0992922727"><ele>53.01</ele><time>2026-08-31T22:06:58Z</time></trkpt><trkpt lat="59.4615409523" lon="31.0992332641"><ele>53.01</ele><time>2026-08-31T22:07:15Z</time></trkpt><trkpt lat="59.4616152160" lon="31.0993166640"><ele>53.01</ele><time>2026-08-31T22:07:31Z</time></trkpt><trkpt lat="59.4616810977" lon="31.0995008145"><ele>53.01</ele><time>2026-08-31T22:07:46Z</time></trkpt><trkpt lat="59.4617327303" lon="31.0996575560"><ele>53.01</ele><time>2026-08-31T22:08:00Z</time></trkpt><trkpt lat="59.4617590494" lon="31.0996728111"><ele>52.53</ele><time>2026-08-31T22:08:16Z</time></trkpt><trkpt lat="59.4618586265" lon="31.0997122899"><ele>52.53</ele><time>2026-08-31T22:08:32Z</time></trkpt><trkpt lat="59.4619600475" lon="31.0997900739"><ele>52.53</ele><time>2026-08-31T22:08:46Z</time></trkpt><trkpt lat="59.4620960858" lon="31.0998180695"><ele>52.53</ele><time>2026-08-31T22:09:04Z</time></trkpt><trkpt lat="59.4621351454" lon="31.0997770820"><ele>52.53</ele><time>2026-08-31T22:09:23Z</time></trkpt><trkpt lat="59.4621589500" lon="31.0997494217"><ele>52.53</ele><time>2026-08-31T22:09:46Z</time></trkpt><trkpt lat="59.4621779770" lon="31.0997251980"><ele>52.53</ele><time>2026-08-31T22:10:15Z</time></trkpt><trkpt lat="59.4622130971" lon="31.0997442249"><ele>52.53</ele><time>2026-08-31T22:10:52Z</time></trkpt><trkpt lat="59.4622110855" lon="31.0997547861"><ele>52.53</ele><time>2026-08-31T22:11:16Z</time></trkpt><trkpt lat="59.4622047152" lon="31.0997616593"><ele>52.53</ele><time>2026-08-31T22:11:43Z</time></trkpt><trkpt lat="59.4621990994" lon="31.0997473262"><ele>52.53</ele><time>2026-08-31T22:12:21Z</time></trkpt><trkpt lat="59.4621915556" lon="31.0997489188"><ele>52.05</ele><time>2026-08-31T22:12:56Z</time></trkpt><trkpt lat="59.4622110017" lon="31.0997633357"><ele>52.05</ele><time>2026-08-31T22:13:12Z</time></trkpt><trkpt lat="59.4622099958" lon="31.0997604020"><ele>52.05</ele><time>2026-08-31T22:13:33Z</time></trkpt><trkpt lat="59.4622024521" lon="31.0997876432"><ele>52.53</ele><time>2026-08-31T22:14:05Z</time></trkpt><trkpt lat="59.4622143544" lon="31.0998080112"><ele>52.53</ele><time>2026-08-31T22:14:31Z</time></trkpt><trkpt lat="59.4622753747" lon="31.0997609887"><ele>52.53</ele><time>2026-08-31T22:14:47Z</time></trkpt><trkpt lat="59.4624408334" lon="31.0998288821"><ele>53.49</ele><time>2026-08-31T22:15:05Z</time></trkpt><trkpt lat="59.4624823239" lon="31.0998754855"><ele>53.49</ele><time>2026-08-31T22:15:21Z</time></trkpt><trkpt lat="59.4625602756" lon="31.0999416187"><ele>53.01</ele><time>2026-08-31T22:15:37Z</time></trkpt><trkpt lat="59.4626348745" lon="31.1000354961"><ele>53.01</ele><time>2026-08-31T22:15:51Z</time></trkpt><trkpt lat="59.4626920391" lon="31.1001165491"><ele>53.01</ele><time>2026-08-31T22:16:08Z</time></trkpt><trkpt lat="59.4627026003" lon="31.1000592168"><ele>53.01</ele><time>2026-08-31T22:16:22Z</time></trkpt><trkpt lat="59.4627214596" lon="31.0999829415"><ele>53.01</ele><time>2026-08-31T22:16:36Z</time></trkpt><trkpt lat="59.4627641235" lon="31.0999557003"><ele>53.01</ele><time>2026-08-31T22:16:48Z</time></trkpt><trkpt lat="59.4628188573" lon="31.0998531897"><ele>52.53</ele><time>2026-08-31T22:17:03Z</time></trkpt><trkpt lat="59.4628730882" lon="31.0998016410"><ele>52.53</ele><time>2026-08-31T22:17:17Z</time></trkpt><trkpt lat="59.4629841484" lon="31.0997460689"><ele>52.53</ele><time>2026-08-31T22:17:32Z</time></trkpt><trkpt lat="59.4630338531" lon="31.0997173190"><ele>52.53</ele><time>2026-08-31T22:17:48Z</time></trkpt><trkpt lat="59.4630610943" lon="31.0997273773"><ele>52.53</ele><time>2026-08-31T22:18:00Z</time></trkpt><trkpt lat="59.4630999863" lon="31.0997552890"><ele>52.05</ele><time>2026-08-31T22:18:16Z</time></trkpt><trkpt lat="59.4631515350" lon="31.0997796804"><ele>52.05</ele><time>2026-08-31T22:18:54Z</time></trkpt><trkpt lat="59.4631787762" lon="31.0998042393"><ele>52.05</ele><time>2026-08-31T22:19:26Z</time></trkpt><trkpt lat="59.4632056821" lon="31.0998261999"><ele>52.05</ele><time>2026-08-31T22:19:43Z</time></trkpt><trkpt lat="59.4632247090" lon="31.0998322349"><ele>52.05</ele><time>2026-08-31T22:19:56Z</time></trkpt><trkpt lat="59.4632874895" lon="31.0998857953"><ele>52.05</ele><time>2026-08-31T22:20:11Z</time></trkpt><trkpt lat="59.4634807762" lon="31.1000270303"><ele>52.05</ele><time>2026-08-31T22:20:27Z</time></trkpt><trkpt lat="59.4635813590" lon="31.1001310498"><ele>52.05</ele><time>2026-08-31T22:20:41Z</time></trkpt><trkpt lat="59.4636490010" lon="31.1002582032"><ele>52.05</ele><time>2026-08-31T22:20:56Z</time></trkpt><trkpt lat="59.4636999629" lon="31.1003125180"><ele>52.05</ele><time>2026-08-31T22:21:09Z</time></trkpt><trkpt lat="59.4637686107" lon="31.1003770586"><ele>52.05</ele><time>2026-08-31T22:21:26Z</time></trkpt><trkpt lat="59.4638971053" lon="31.1004397552"><ele>51.57</ele><time>2026-08-31T22:21:38Z</time></trkpt><trkpt lat="59.4640032202" lon="31.1005042959"><ele>51.57</ele><time>2026-08-31T22:21:57Z</time></trkpt><trkpt lat="59.4640712813" lon="31.1005671602"><ele>51.57</ele><time>2026-08-31T22:22:13Z</time></trkpt><trkpt lat="59.4641706906" lon="31.1007327866"><ele>51.57</ele><time>2026-08-31T22:22:28Z</time></trkpt><trkpt lat="59.4642498158" lon="31.1008750275"><ele>51.57</ele><time>2026-08-31T22:22:46Z</time></trkpt><trkpt lat="59.4643766340" lon="31.1009159312"><ele>51.57</ele><time>2026-08-31T22:23:01Z</time></trkpt><trkpt lat="59.4643795677" lon="31.1009171885"><ele>51.57</ele><time>2026-08-31T22:23:02Z</time></trkpt><trkpt lat="59.4644843414" lon="31.1010476109"><ele>51.57</ele><time>2026-08-31T22:23:13Z</time></trkpt><trkpt lat="59.4645457808" lon="31.1011199467"><ele>51.57</ele><time>2026-08-31T22:23:25Z</time></trkpt><trkpt lat="59.4647137541" lon="31.1012840644"><ele>51.57</ele><time>2026-08-31T22:23:40Z</time></trkpt><trkpt lat="59.4647595193" lon="31.1013482697"><ele>51.57</ele><time>2026-08-31T22:23:52Z</time></trkpt><trkpt lat="59.4648069609" lon="31.1014206894"><ele>51.57</ele><time>2026-08-31T22:24:02Z</time></trkpt><trkpt lat="59.4648638740" lon="31.1014908459"><ele>51.09</ele><time>2026-08-31T22:24:12Z</time></trkpt><trkpt lat="59.4649458490" lon="31.1015796941"><ele>51.09</ele><time>2026-08-31T22:24:28Z</time></trkpt><trkpt lat="59.4649896864" lon="31.1016474199"><ele>51.09</ele><time>2026-08-31T22:24:42Z</time></trkpt><trkpt lat="59.4650664646" lon="31.1017322447"><ele>51.09</ele><time>2026-08-31T22:24:58Z</time></trkpt><trkpt lat="59.4650741760" lon="31.1017658561"><ele>51.09</ele><time>2026-08-31T22:25:30Z</time></trkpt><trkpt lat="59.4650802948" lon="31.1017702147"><ele>51.09</ele><time>2026-08-31T22:25:59Z</time></trkpt><trkpt lat="59.4650823902" lon="31.1017737351"><ele>51.09</ele><time>2026-08-31T22:26:21Z</time></trkpt><trkpt lat="59.4650956336" lon="31.1018189136"><ele>51.09</ele><time>2026-08-31T22:26:45Z</time></trkpt><trkpt lat="59.4651363697" lon="31.1018772516"><ele>51.09</ele><time>2026-08-31T22:26:58Z</time></trkpt><trkpt lat="59.4651780277" lon="31.1019453127"><ele>51.09</ele><time>2026-08-31T22:27:12Z</time></trkpt><trkpt lat="59.4652033411" lon="31.1019738112"><ele>51.09</ele><time>2026-08-31T22:27:35Z</time></trkpt><trkpt lat="59.4652040116" lon="31.1020042375"><ele>51.09</ele><time>2026-08-31T22:28:11Z</time></trkpt><trkpt lat="59.4652205240" lon="31.1020132061"><ele>51.09</ele><time>2026-08-31T22:28:39Z</time></trkpt><trkpt lat="59.4652372040" lon="31.1020405311"><ele>50.61</ele><time>2026-08-31T22:29:06Z</time></trkpt><trkpt lat="59.4652317557" lon="31.1020313110"><ele>50.61</ele><time>2026-08-31T22:29:35Z</time></trkpt><trkpt lat="59.4652665406" lon="31.1020230968"><ele>50.61</ele><time>2026-08-31T22:29:54Z</time></trkpt><trkpt lat="59.4652967993" lon="31.1020248570"><ele>50.61</ele><time>2026-08-31T22:30:28Z</time></trkpt><trkpt lat="59.4653059356" lon="31.1020601448"><ele>50.61</ele><time>2026-08-31T22:31:06Z</time></trkpt><trkpt lat="59.4653153233" lon="31.1020774115"><ele>50.61</ele><time>2026-08-31T22:31:39Z</time></trkpt><trkpt lat="59.4653168321" lon="31.1020838656"><ele>51.09</ele><time>2026-08-31T22:32:11Z</time></trkpt><trkpt lat="59.4653304107" lon="31.1020701192"><ele>51.09</ele><time>2026-08-31T22:32:42Z</time></trkpt><trkpt lat="59.4653317519" lon="31.1020640843"><ele>51.09</ele><time>2026-08-31T22:33:11Z</time></trkpt><trkpt lat="59.4653079472" lon="31.1020194925"><ele>50.61</ele><time>2026-08-31T22:33:34Z</time></trkpt><trkpt lat="59.4653753377" lon="31.1019115336"><ele>50.61</ele><time>2026-08-31T22:33:55Z</time></trkpt><trkpt lat="59.4653710630" lon="31.1019464862"><ele>50.61</ele><time>2026-08-31T22:34:14Z</time></trkpt><trkpt lat="59.4653822109" lon="31.1019903235"><ele>50.61</ele><time>2026-08-31T22:34:40Z</time></trkpt><trkpt lat="59.4653747510" lon="31.1020370107"><ele>50.61</ele><time>2026-08-31T22:35:05Z</time></trkpt><trkpt lat="59.4653794449" lon="31.1020301376"><ele>50.61</ele><time>2026-08-31T22:35:32Z</time></trkpt><trkpt lat="59.4653951190" lon="31.1020396091"><ele>50.61</ele><time>2026-08-31T22:35:48Z</time></trkpt><trkpt lat="59.4654211868" lon="31.1020607315"><ele>50.61</ele><time>2026-08-31T22:36:06Z</time></trkpt><trkpt lat="59.4654546306" lon="31.1020906549"><ele>50.61</ele><time>2026-08-31T22:36:24Z</time></trkpt><trkpt lat="59.4654692989" lon="31.1021114420"><ele>50.61</ele><time>2026-08-31T22:36:40Z</time></trkpt><trkpt lat="59.4655112922" lon="31.1021924112"><ele>50.61</ele><time>2026-08-31T22:36:57Z</time></trkpt><trkpt lat="59.4655982126" lon="31.1022920720"><ele>50.61</ele><time>2026-08-31T22:37:14Z</time></trkpt><trkpt lat="59.4657035731" lon="31.1024678405"><ele>50.61</ele><time>2026-08-31T22:37:31Z</time></trkpt><trkpt lat="59.4658194110" lon="31.1026042979"><ele>50.61</ele><time>2026-08-31T22:37:49Z</time></trkpt><trkpt lat="59.4659461454" lon="31.1026376579"><ele>50.61</ele><time>2026-08-31T22:38:02Z</time></trkpt><trkpt lat="59.4660673477" lon="31.1028207187"><ele>50.61</ele><time>2026-08-31T22:38:21Z</time></trkpt><trkpt lat="59.4660703652" lon="31.1028865166"><ele>50.61</ele><time>2026-08-31T22:38:46Z</time></trkpt><trkpt lat="59.4661066588" lon="31.1028735247"><ele>50.61</ele><time>2026-08-31T22:39:15Z</time></trkpt><trkpt lat="59.4661055692" lon="31.1029021069"><ele>51.09</ele><time>2026-08-31T22:39:42Z</time></trkpt><trkpt lat="59.4661199860" lon="31.1029205471"><ele>51.09</ele><time>2026-08-31T22:40:10Z</time></trkpt><trkpt lat="59.4661243446" lon="31.1029352993"><ele>51.09</ele><time>2026-08-31T22:40:39Z</time></trkpt><trkpt lat="59.4661280327" lon="31.1029612832"><ele>51.09</ele><time>2026-08-31T22:41:06Z</time></trkpt><trkpt lat="59.4661318045" lon="31.1029730178"><ele>51.09</ele><time>2026-08-31T22:41:36Z</time></trkpt><trkpt lat="59.4661469758" lon="31.1029355507"><ele>51.09</ele><time>2026-08-31T22:41:58Z</time></trkpt><trkpt lat="59.4661509991" lon="31.1029111594"><ele>51.57</ele><time>2026-08-31T22:42:23Z</time></trkpt><trkpt lat="59.4661488198" lon="31.1029189546"><ele>51.57</ele><time>2026-08-31T22:42:51Z</time></trkpt><trkpt lat="59.4661048986" lon="31.1029302701"><ele>51.57</ele><time>2026-08-31T22:43:13Z</time></trkpt><trkpt lat="59.4660937507" lon="31.1028335430"><ele>51.57</ele><time>2026-08-31T22:43:35Z</time></trkpt><trkpt lat="59.4661626499" lon="31.1028356384"><ele>51.57</ele><time>2026-08-31T22:44:10Z</time></trkpt><trkpt lat="59.4661889691" lon="31.1029029451"><ele>51.09</ele><time>2026-08-31T22:44:27Z</time></trkpt><trkpt lat="59.4661790784" lon="31.1028878577"><ele>51.09</ele><time>2026-08-31T22:44:32Z</time></trkpt><trkpt lat="59.4655675348" lon="31.1031766981"><ele>51.09</ele><time>2026-08-31T22:45:09Z</time></trkpt><trkpt lat="59.4662211556" lon="31.1044183932"><ele>51.09</ele><time>2026-08-31T22:47:04Z</time></trkpt><trkpt lat="59.4661830179" lon="31.1028303578"><ele>51.09</ele><time>2026-08-31T22:47:27Z</time></trkpt><trkpt lat="59.4660957623" lon="31.1026811600"><ele>51.57</ele><time>2026-08-31T22:47:52Z</time></trkpt><trkpt lat="59.4660427049" lon="31.1027141847"><ele>51.57</ele><time>2026-08-31T22:48:12Z</time></trkpt><trkpt lat="59.4659360871" lon="31.1025950778"><ele>51.57</ele><time>2026-08-31T22:48:25Z</time></trkpt><trkpt lat="59.4658592250" lon="31.1025516596"><ele>51.57</ele><time>2026-08-31T22:48:40Z</time></trkpt><trkpt lat="59.4657650962" lon="31.1024713609"><ele>51.57</ele><time>2026-08-31T22:48:54Z</time></trkpt><trkpt lat="59.4656708837" lon="31.1023518350"><ele>51.57</ele><time>2026-08-31T22:49:07Z</time></trkpt><trkpt lat="59.4656307343" lon="31.1023013759"><ele>52.05</ele><time>2026-08-31T22:49:12Z</time></trkpt><trkpt lat="59.4655599073" lon="31.1021975242"><ele>52.05</ele><time>2026-08-31T22:49:26Z</time></trkpt><trkpt lat="59.4655187521" lon="31.1021269485"><ele>52.05</ele><time>2026-08-31T22:49:37Z</time></trkpt><trkpt lat="59.4654458296" lon="31.1020615697"><ele>52.05</ele><time>2026-08-31T22:49:50Z</time></trkpt><trkpt lat="59.4653719850" lon="31.1020090990"><ele>52.05</ele><time>2026-08-31T22:50:04Z</time></trkpt><trkpt lat="59.4652978051" lon="31.1019110307"><ele>52.05</ele><time>2026-08-31T22:50:20Z</time></trkpt><trkpt lat="59.4652008265" lon="31.1018044967"><ele>52.05</ele><time>2026-08-31T22:50:32Z</time></trkpt><trkpt lat="59.4651212823" lon="31.1017017346"><ele>52.05</ele><time>2026-08-31T22:50:46Z</time></trkpt><trkpt lat="59.4650502037" lon="31.1016459949"><ele>52.05</ele><time>2026-08-31T22:50:56Z</time></trkpt><trkpt lat="59.4649728388" lon="31.1015266366"><ele>52.05</ele><time>2026-08-31T22:51:11Z</time></trkpt><trkpt lat="59.4648899417" lon="31.1014340166"><ele>52.05</ele><time>2026-08-31T22:51:24Z</time></trkpt><trkpt lat="59.4648297597" lon="31.1013720743"><ele>52.05</ele><time>2026-08-31T22:51:39Z</time></trkpt><trkpt lat="59.4647896942" lon="31.1013206933"><ele>52.05</ele><time>2026-08-31T22:51:46Z</time></trkpt><trkpt lat="59.4647170231" lon="31.1012626067"><ele>52.05</ele><time>2026-08-31T22:51:58Z</time></trkpt><trkpt lat="59.4646444358" lon="31.1011823080"><ele>52.05</ele><time>2026-08-31T22:52:12Z</time></trkpt><trkpt lat="59.4645509776" lon="31.1010416597"><ele>53.01</ele><time>2026-08-31T22:52:21Z</time></trkpt><trkpt lat="59.4644592796" lon="31.1009181105"><ele>53.01</ele><time>2026-08-31T22:52:34Z</time></trkpt><trkpt lat="59.4643931463" lon="31.1008460261"><ele>53.01</ele><time>2026-08-31T22:52:43Z</time></trkpt><trkpt lat="59.4642499834" lon="31.1007142626"><ele>53.49</ele><time>2026-08-31T22:52:57Z</time></trkpt><trkpt lat="59.4641401805" lon="31.1006309465"><ele>53.49</ele><time>2026-08-31T22:53:10Z</time></trkpt><trkpt lat="59.4640214927" lon="31.1004955787"><ele>53.49</ele><time>2026-08-31T22:53:24Z</time></trkpt><trkpt lat="59.4639555272" lon="31.1004068982"><ele>53.49</ele><time>2026-08-31T22:53:36Z</time></trkpt><trkpt lat="59.4639313035" lon="31.1003835965"><ele>53.49</ele><time>2026-08-31T22:53:42Z</time></trkpt><trkpt lat="59.4637929182" lon="31.1003201455"><ele>53.49</ele><time>2026-08-31T22:53:58Z</time></trkpt><trkpt lat="59.4637554511" lon="31.1002256814"><ele>53.49</ele><time>2026-08-31T22:54:12Z</time></trkpt><trkpt lat="59.4636246096" lon="31.1000774056"><ele>53.49</ele><time>2026-08-31T22:54:26Z</time></trkpt><trkpt lat="59.4635026529" lon="31.0999573767"><ele>53.49</ele><time>2026-08-31T22:54:41Z</time></trkpt><trkpt lat="59.4633919280" lon="31.0998288821"><ele>53.49</ele><time>2026-08-31T22:54:55Z</time></trkpt><trkpt lat="59.4633336738" lon="31.0998062510"><ele>53.49</ele><time>2026-08-31T22:55:06Z</time></trkpt><trkpt lat="59.4632641878" lon="31.0997252818"><ele>53.49</ele><time>2026-08-31T22:55:20Z</time></trkpt><trkpt lat="59.4631896727" lon="31.0996185802"><ele>53.49</ele><time>2026-08-31T22:55:33Z</time></trkpt><trkpt lat="59.4631092064" lon="31.0995122977"><ele>53.49</ele><time>2026-08-31T22:55:43Z</time></trkpt><trkpt lat="59.4630755112" lon="31.0994382016"><ele>53.49</ele><time>2026-08-31T22:55:57Z</time></trkpt><trkpt lat="59.4630912691" lon="31.0994006507"><ele>53.49</ele><time>2026-08-31T22:56:18Z</time></trkpt><trkpt lat="59.4630960468" lon="31.0993485991"><ele>53.49</ele><time>2026-08-31T22:56:33Z</time></trkpt><trkpt lat="59.4630953763" lon="31.0993253812"><ele>53.49</ele><time>2026-08-31T22:56:52Z</time></trkpt><trkpt lat="59.4631073624" lon="31.0992958769"><ele>53.49</ele><time>2026-08-31T22:57:13Z</time></trkpt><trkpt lat="59.4630491920" lon="31.0991957132"><ele>53.49</ele><time>2026-08-31T22:57:30Z</time></trkpt><trkpt lat="59.4630081207" lon="31.0991309211"><ele>53.49</ele><time>2026-08-31T22:57:46Z</time></trkpt><trkpt lat="59.4629504532" lon="31.0989927035"><ele>53.49</ele><time>2026-08-31T22:58:02Z</time></trkpt><trkpt lat="59.4628949650" lon="31.0989062861"><ele>53.49</ele><time>2026-08-31T22:58:16Z</time></trkpt><trkpt lat="59.4628388062" lon="31.0988160130"><ele>53.49</ele><time>2026-08-31T22:58:29Z</time></trkpt><trkpt lat="59.4628177676" lon="31.0987485386"><ele>53.49</ele><time>2026-08-31T22:58:42Z</time></trkpt><trkpt lat="59.4627766125" lon="31.0987256560"><ele>53.49</ele><time>2026-08-31T22:58:57Z</time></trkpt><trkpt lat="59.4626795501" lon="31.0987287574"><ele>53.97</ele><time>2026-08-31T22:59:12Z</time></trkpt><trkpt lat="59.4625818171" lon="31.0988434218"><ele>53.97</ele><time>2026-08-31T22:59:27Z</time></trkpt><trkpt lat="59.4625335373" lon="31.0988516361"><ele>53.97</ele><time>2026-08-31T22:59:41Z</time></trkpt><trkpt lat="59.4625038654" lon="31.0988170188"><ele>53.97</ele><time>2026-08-31T22:59:55Z</time></trkpt><trkpt lat="59.4624854252" lon="31.0987859219"><ele>53.97</ele><time>2026-08-31T23:00:07Z</time></trkpt><trkpt lat="59.4624116644" lon="31.0987122450"><ele>53.97</ele><time>2026-08-31T23:00:21Z</time></trkpt><trkpt lat="59.4622938987" lon="31.0986044537"><ele>53.97</ele><time>2026-08-31T23:00:33Z</time></trkpt><trkpt lat="59.4621903822" lon="31.0985041223"><ele>53.97</ele><time>2026-08-31T23:00:49Z</time></trkpt><trkpt lat="59.4621057250" lon="31.0984460358"><ele>53.97</ele><time>2026-08-31T23:01:04Z</time></trkpt><trkpt lat="59.4620089978" lon="31.0984143522"><ele>53.97</ele><time>2026-08-31T23:01:23Z</time></trkpt><trkpt lat="59.4619675074" lon="31.0983826686"><ele>53.97</ele><time>2026-08-31T23:01:39Z</time></trkpt><trkpt lat="59.4619043078" lon="31.0983913019"><ele>53.97</ele><time>2026-08-31T23:01:53Z</time></trkpt><trkpt lat="59.4617966842" lon="31.0984382406"><ele>54.45</ele><time>2026-08-31T23:02:09Z</time></trkpt><trkpt lat="59.4617015496" lon="31.0984718520"><ele>54.45</ele><time>2026-08-31T23:02:24Z</time></trkpt><trkpt lat="59.4615293015" lon="31.0984353907"><ele>53.49</ele><time>2026-08-31T23:02:40Z</time></trkpt><trkpt lat="59.4614619110" lon="31.0984809045"><ele>53.49</ele><time>2026-08-31T23:02:54Z</time></trkpt><trkpt lat="59.4613763317" lon="31.0985596105"><ele>53.49</ele><time>2026-08-31T23:03:05Z</time></trkpt><trkpt lat="59.4612776767" lon="31.0985625442"><ele>53.01</ele><time>2026-08-31T23:03:17Z</time></trkpt><trkpt lat="59.4611901697" lon="31.0985228978"><ele>53.01</ele><time>2026-08-31T23:03:31Z</time></trkpt><trkpt lat="59.4611324184" lon="31.0984831676"><ele>53.01</ele><time>2026-08-31T23:03:45Z</time></trkpt><trkpt lat="59.4610900059" lon="31.0985814873"><ele>53.01</ele><time>2026-08-31T23:03:56Z</time></trkpt><trkpt lat="59.4610879943" lon="31.0986116622"><ele>53.01</ele><time>2026-08-31T23:03:58Z</time></trkpt><trkpt lat="59.4610728230" lon="31.0986789688"><ele>53.01</ele><time>2026-08-31T23:04:03Z</time></trkpt><trkpt lat="59.4610216096" lon="31.0986681562"><ele>53.01</ele><time>2026-08-31T23:04:10Z</time></trkpt><trkpt lat="59.4609947037" lon="31.0986558348"><ele>53.01</ele><time>2026-08-31T23:04:21Z</time></trkpt><trkpt lat="59.4609859027" lon="31.0986596067"><ele>53.01</ele><time>2026-08-31T23:04:23Z</time></trkpt><trkpt lat="59.4609738328" lon="31.0987027735"><ele>53.01</ele><time>2026-08-31T23:04:28Z</time></trkpt><trkpt lat="59.4609279837" lon="31.0987129156"><ele>53.01</ele><time>2026-08-31T23:04:36Z</time></trkpt><trkpt lat="59.4608508702" lon="31.0986295156"><ele>53.01</ele><time>2026-08-31T23:04:45Z</time></trkpt><trkpt lat="59.4607999921" lon="31.0986135900"><ele>53.01</ele><time>2026-08-31T23:04:52Z</time></trkpt><trkpt lat="59.4607107248" lon="31.0986676533"><ele>53.01</ele><time>2026-08-31T23:05:02Z</time></trkpt><trkpt lat="59.4606558233" lon="31.0988356266"><ele>52.53</ele><time>2026-08-31T23:05:14Z</time></trkpt><trkpt lat="59.4605948869" lon="31.0989854950"><ele>52.53</ele><time>2026-08-31T23:05:24Z</time></trkpt><trkpt lat="59.4605166838" lon="31.0991681367"><ele>52.53</ele><time>2026-08-31T23:05:36Z</time></trkpt><trkpt lat="59.4604803901" lon="31.0992554761"><ele>52.53</ele><time>2026-08-31T23:05:41Z</time></trkpt><trkpt lat="59.4604009297" lon="31.0994511936"><ele>52.53</ele><time>2026-08-31T23:05:54Z</time></trkpt><trkpt lat="59.4603285939" lon="31.0996391159"><ele>52.53</ele><time>2026-08-31T23:06:07Z</time></trkpt><trkpt lat="59.4602518156" lon="31.0998454783"><ele>52.05</ele><time>2026-08-31T23:06:21Z</time></trkpt><trkpt lat="59.4601959921" lon="31.0999821872"><ele>52.05</ele><time>2026-08-31T23:06:30Z</time></trkpt><trkpt lat="59.4601684157" lon="31.1000645813"><ele>52.05</ele><time>2026-08-31T23:06:35Z</time></trkpt><trkpt lat="59.4601451978" lon="31.1001057364"><ele>51.57</ele><time>2026-08-31T23:06:38Z</time></trkpt><trkpt lat="59.4601210579" lon="31.1001644097"><ele>51.57</ele><time>2026-08-31T23:06:42Z</time></trkpt><trkpt lat="59.4601001032" lon="31.1002004519"><ele>51.57</ele><time>2026-08-31T23:06:45Z</time></trkpt><trkpt lat="59.4600389153" lon="31.1003934033"><ele>51.57</ele><time>2026-08-31T23:06:56Z</time></trkpt><trkpt lat="59.4599748775" lon="31.1005452834"><ele>51.57</ele><time>2026-08-31T23:07:06Z</time></trkpt><trkpt lat="59.4599089958" lon="31.1007016059"><ele>51.57</ele><time>2026-08-31T23:07:18Z</time></trkpt><trkpt lat="59.4598717801" lon="31.1007655598"><ele>51.57</ele><time>2026-08-31T23:07:22Z</time></trkpt><trkpt lat="59.4597773161" lon="31.1009625345"><ele>51.57</ele><time>2026-08-31T23:07:36Z</time></trkpt><trkpt lat="59.4597087521" lon="31.1010647938"><ele>51.57</ele><time>2026-08-31T23:07:45Z</time></trkpt><trkpt lat="59.4596093427" lon="31.1012105551"><ele>51.09</ele><time>2026-08-31T23:07:58Z</time></trkpt><trkpt lat="59.4595623203" lon="31.1012355331"><ele>51.09</ele><time>2026-08-31T23:08:03Z</time></trkpt><trkpt lat="59.4595035631" lon="31.1012155842"><ele>51.09</ele><time>2026-08-31T23:08:08Z</time></trkpt><trkpt lat="59.4593976159" lon="31.1012009159"><ele>51.09</ele><time>2026-08-31T23:08:21Z</time></trkpt><trkpt lat="59.4593277108" lon="31.1011330225"><ele>51.09</ele><time>2026-08-31T23:08:31Z</time></trkpt><trkpt lat="59.4592851307" lon="31.1010555737"><ele>51.09</ele><time>2026-08-31T23:08:36Z</time></trkpt><trkpt lat="59.4591946062" lon="31.1007974949"><ele>51.09</ele><time>2026-08-31T23:08:49Z</time></trkpt><trkpt lat="59.4591398723" lon="31.1006397475"><ele>51.09</ele><time>2026-08-31T23:08:58Z</time></trkpt><trkpt lat="59.4591172412" lon="31.1005684175"><ele>51.09</ele><time>2026-08-31T23:09:02Z</time></trkpt><trkpt lat="59.4590242021" lon="31.1003922299"><ele>51.09</ele><time>2026-08-31T23:09:13Z</time></trkpt><trkpt lat="59.4590102881" lon="31.1003594566"><ele>51.09</ele><time>2026-08-31T23:09:15Z</time></trkpt><trkpt lat="59.4589419756" lon="31.1001588777"><ele>50.61</ele><time>2026-08-31T23:09:27Z</time></trkpt><trkpt lat="59.4589299057" lon="31.1001168005"><ele>50.61</ele><time>2026-08-31T23:09:29Z</time></trkpt><trkpt lat="59.4588527083" lon="31.1000002082"><ele>50.61</ele><time>2026-08-31T23:09:39Z</time></trkpt><trkpt lat="59.4587284047" lon="31.0997285508"><ele>50.61</ele><time>2026-08-31T23:09:56Z</time></trkpt><trkpt lat="59.4586568233" lon="31.0995124653"><ele>50.61</ele><time>2026-08-31T23:10:08Z</time></trkpt><trkpt lat="59.4586294144" lon="31.0994254611"><ele>50.61</ele><time>2026-08-31T23:10:13Z</time></trkpt><trkpt lat="59.4586121477" lon="31.0994057637"><ele>50.61</ele><time>2026-08-31T23:10:15Z</time></trkpt><trkpt lat="59.4585882593" lon="31.0993422288"><ele>50.61</ele><time>2026-08-31T23:10:19Z</time></trkpt><trkpt lat="59.4585268199" lon="31.0991661251"><ele>50.61</ele><time>2026-08-31T23:10:30Z</time></trkpt><trkpt lat="59.4584403187" lon="31.0989306774"><ele>50.61</ele><time>2026-08-31T23:10:42Z</time></trkpt><trkpt lat="59.4583647139" lon="31.0986965708"><ele>50.61</ele><time>2026-08-31T23:10:55Z</time></trkpt><trkpt lat="59.4583120756" lon="31.0985541623"><ele>50.61</ele><time>2026-08-31T23:11:04Z</time></trkpt><trkpt lat="59.4582451880" lon="31.0983625520"><ele>50.61</ele><time>2026-08-31T23:11:15Z</time></trkpt><trkpt lat="59.4582397398" lon="31.0983364005"><ele>50.61</ele><time>2026-08-31T23:11:16Z</time></trkpt><trkpt lat="59.4582279213" lon="31.0982949100"><ele>50.61</ele><time>2026-08-31T23:11:18Z</time></trkpt><trkpt lat="59.4581657276" lon="31.0980856139"><ele>50.61</ele><time>2026-08-31T23:11:30Z</time></trkpt><trkpt lat="59.4581131730" lon="31.0978977755"><ele>51.57</ele><time>2026-08-31T23:11:41Z</time></trkpt><trkpt lat="59.4580379874" lon="31.0977156367"><ele>51.57</ele><time>2026-08-31T23:11:52Z</time></trkpt><trkpt lat="59.4579902943" lon="31.0975275468"><ele>52.05</ele><time>2026-08-31T23:12:02Z</time></trkpt><trkpt lat="59.4579276815" lon="31.0973536223"><ele>52.05</ele><time>2026-08-31T23:12:12Z</time></trkpt><trkpt lat="59.4578557648" lon="31.0970933642"><ele>52.05</ele><time>2026-08-31T23:12:25Z</time></trkpt><trkpt lat="59.4578323793" lon="31.0970077012"><ele>52.05</ele><time>2026-08-31T23:12:31Z</time></trkpt><trkpt lat="59.4577736221" lon="31.0968508758"><ele>52.05</ele><time>2026-08-31T23:12:40Z</time></trkpt><trkpt lat="59.4577196427" lon="31.0966585111"><ele>52.05</ele><time>2026-08-31T23:12:50Z</time></trkpt><trkpt lat="59.4577012025" lon="31.0965439305"><ele>52.05</ele><time>2026-08-31T23:12:55Z</time></trkpt><trkpt lat="59.4576820917" lon="31.0965083912"><ele>52.05</ele><time>2026-08-31T23:12:57Z</time></trkpt><trkpt lat="59.4576041400" lon="31.0962669086"><ele>52.05</ele><time>2026-08-31T23:13:09Z</time></trkpt><trkpt lat="59.4575900584" lon="31.0962204728"><ele>52.05</ele><time>2026-08-31T23:13:12Z</time></trkpt><trkpt lat="59.4575234223" lon="31.0959382541"><ele>52.05</ele><time>2026-08-31T23:13:25Z</time></trkpt><trkpt lat="59.4574491587" lon="31.0957493261"><ele>52.05</ele><time>2026-08-31T23:13:36Z</time></trkpt><trkpt lat="59.4574116077" lon="31.0956707876"><ele>52.05</ele><time>2026-08-31T23:13:41Z</time></trkpt><trkpt lat="59.4573498331" lon="31.0954811051"><ele>52.53</ele><time>2026-08-31T23:13:52Z</time></trkpt><trkpt lat="59.4572940096" lon="31.0952731501"><ele>52.53</ele><time>2026-08-31T23:14:04Z</time></trkpt><trkpt lat="59.4572406169" lon="31.0951383691"><ele>52.53</ele><time>2026-08-31T23:14:11Z</time></trkpt><trkpt lat="59.4572155550" lon="31.0950174183"><ele>52.53</ele><time>2026-08-31T23:14:17Z</time></trkpt><trkpt lat="59.4572153874" lon="31.0949796997"><ele>52.53</ele><time>2026-08-31T23:14:19Z</time></trkpt><trkpt lat="59.4571452308" lon="31.0947991535"><ele>52.53</ele><time>2026-08-31T23:14:31Z</time></trkpt><trkpt lat="59.4571401179" lon="31.0947782826"><ele>52.53</ele><time>2026-08-31T23:14:32Z</time></trkpt><trkpt lat="59.4571260363" lon="31.0946570802"><ele>52.53</ele><time>2026-08-31T23:14:37Z</time></trkpt><trkpt lat="59.4570765831" lon="31.0945537314"><ele>52.53</ele><time>2026-08-31T23:14:44Z</time></trkpt><trkpt lat="59.4570490904" lon="31.0944011807"><ele>52.53</ele><time>2026-08-31T23:14:52Z</time></trkpt><trkpt lat="59.4569775090" lon="31.0941885319"><ele>52.53</ele><time>2026-08-31T23:15:03Z</time></trkpt><trkpt lat="59.4569633435" lon="31.0941343848"><ele>52.53</ele><time>2026-08-31T23:15:06Z</time></trkpt><trkpt lat="59.4569403771" lon="31.0940560140"><ele>52.53</ele><time>2026-08-31T23:15:12Z</time></trkpt><trkpt lat="59.4568784349" lon="31.0938803293"><ele>53.01</ele><time>2026-08-31T23:15:23Z</time></trkpt><trkpt lat="59.4568658620" lon="31.0938147828"><ele>53.01</ele><time>2026-08-31T23:15:26Z</time></trkpt><trkpt lat="59.4568492658" lon="31.0937738791"><ele>53.01</ele><time>2026-08-31T23:15:28Z</time></trkpt><trkpt lat="59.4568105415" lon="31.0936774872"><ele>53.01</ele><time>2026-08-31T23:15:33Z</time></trkpt><trkpt lat="59.4567345176" lon="31.0934636649"><ele>53.01</ele><time>2026-08-31T23:15:45Z</time></trkpt><trkpt lat="59.4566536322" lon="31.0932852142"><ele>53.01</ele><time>2026-08-31T23:15:57Z</time></trkpt><trkpt lat="59.4566501956" lon="31.0932737309"><ele>53.01</ele><time>2026-08-31T23:15:58Z</time></trkpt><trkpt lat="59.4566427357" lon="31.0932329111"><ele>53.01</ele><time>2026-08-31T23:16:00Z</time></trkpt><trkpt lat="59.4565980602" lon="31.0931165703"><ele>53.01</ele><time>2026-08-31T23:16:07Z</time></trkpt><trkpt lat="59.4565339386" lon="31.0929812863"><ele>53.01</ele><time>2026-08-31T23:16:15Z</time></trkpt><trkpt lat="59.4564833958" lon="31.0927309189"><ele>53.01</ele><time>2026-08-31T23:16:27Z</time></trkpt><trkpt lat="59.4564647041" lon="31.0926557332"><ele>53.01</ele><time>2026-08-31T23:16:32Z</time></trkpt><trkpt lat="59.4564058632" lon="31.0924880952"><ele>53.01</ele><time>2026-08-31T23:16:43Z</time></trkpt><trkpt lat="59.4563940447" lon="31.0924273264"><ele>52.53</ele><time>2026-08-31T23:16:46Z</time></trkpt><trkpt lat="59.4562949706" lon="31.0922065470"><ele>52.53</ele><time>2026-08-31T23:16:59Z</time></trkpt><trkpt lat="59.4561981596" lon="31.0920733586"><ele>52.53</ele><time>2026-08-31T23:17:11Z</time></trkpt><trkpt lat="59.4561467785" lon="31.0919876955"><ele>52.53</ele><time>2026-08-31T23:17:17Z</time></trkpt><trkpt lat="59.4560337905" lon="31.0918246675"><ele>53.01</ele><time>2026-08-31T23:17:29Z</time></trkpt><trkpt lat="59.4559950661" lon="31.0917644855"><ele>53.01</ele><time>2026-08-31T23:17:33Z</time></trkpt><trkpt lat="59.4559452776" lon="31.0917151999"><ele>53.01</ele><time>2026-08-31T23:17:37Z</time></trkpt><trkpt lat="59.4557999354" lon="31.0915437900"><ele>53.49</ele><time>2026-08-31T23:17:51Z</time></trkpt><trkpt lat="59.4557882845" lon="31.0915340669"><ele>53.49</ele><time>2026-08-31T23:17:52Z</time></trkpt><trkpt lat="59.4556442834" lon="31.0914001241"><ele>53.49</ele><time>2026-08-31T23:18:04Z</time></trkpt><trkpt lat="59.4556284416" lon="31.0913668480"><ele>53.49</ele><time>2026-08-31T23:18:06Z</time></trkpt><trkpt lat="59.4556081574" lon="31.0913305543"><ele>53.49</ele><time>2026-08-31T23:18:08Z</time></trkpt><trkpt lat="59.4554988574" lon="31.0912069213"><ele>53.49</ele><time>2026-08-31T23:18:19Z</time></trkpt><trkpt lat="59.4553696923" lon="31.0910398699"><ele>53.49</ele><time>2026-08-31T23:18:32Z</time></trkpt><trkpt lat="59.4552080892" lon="31.0908375308"><ele>53.97</ele><time>2026-08-31T23:18:46Z</time></trkpt><trkpt lat="59.4551857095" lon="31.0908200126"><ele>53.97</ele><time>2026-08-31T23:18:48Z</time></trkpt><trkpt lat="59.4550743978" lon="31.0907040071"><ele>53.49</ele><time>2026-08-31T23:18:59Z</time></trkpt><trkpt lat="59.4549376890" lon="31.0905805416"><ele>53.49</ele><time>2026-08-31T23:19:11Z</time></trkpt><trkpt lat="59.4548840448" lon="31.0904977284"><ele>53.49</ele><time>2026-08-31T23:19:17Z</time></trkpt><trkpt lat="59.4548330829" lon="31.0903968941"><ele>53.49</ele><time>2026-08-31T23:19:22Z</time></trkpt><trkpt lat="59.4547827076" lon="31.0903373826"><ele>53.49</ele><time>2026-08-31T23:19:32Z</time></trkpt><trkpt lat="59.4547793549" lon="31.0903431661"><ele>53.49</ele><time>2026-08-31T23:20:00Z</time></trkpt><trkpt lat="59.4547791034" lon="31.0903484467"><ele>53.49</ele><time>2026-08-31T23:20:17Z</time></trkpt><trkpt lat="59.4547809474" lon="31.0903526377"><ele>53.49</ele><time>2026-08-31T23:20:30Z</time></trkpt><trkpt lat="59.4547783490" lon="31.0903568286"><ele>53.49</ele><time>2026-08-31T23:20:46Z</time></trkpt><trkpt lat="59.4547846355" lon="31.0903585888"><ele>53.49</ele><time>2026-08-31T23:21:00Z</time></trkpt><trkpt lat="59.4547897484" lon="31.0903533921"><ele>53.49</ele><time>2026-08-31T23:21:30Z</time></trkpt><trkpt lat="59.4547880720" lon="31.0903787054"><ele>53.49</ele><time>2026-08-31T23:21:54Z</time></trkpt><trkpt lat="59.4547871500" lon="31.0903663840"><ele>53.49</ele><time>2026-08-31T23:22:20Z</time></trkpt><trkpt lat="59.4547890779" lon="31.0903688986"><ele>53.49</ele><time>2026-08-31T23:22:38Z</time></trkpt><trkpt lat="59.4547840487" lon="31.0903779510"><ele>53.49</ele><time>2026-08-31T23:22:56Z</time></trkpt><trkpt lat="59.4547854736" lon="31.0903752688"><ele>53.49</ele><time>2026-08-31T23:23:19Z</time></trkpt><trkpt lat="59.4547895808" lon="31.0903725866"><ele>53.97</ele><time>2026-08-31T23:23:44Z</time></trkpt><trkpt lat="59.4547902513" lon="31.0903802980"><ele>53.97</ele><time>2026-08-31T23:24:04Z</time></trkpt><trkpt lat="59.4547757506" lon="31.0903577507"><ele>53.97</ele><time>2026-08-31T23:24:24Z</time></trkpt><trkpt lat="59.4547761697" lon="31.0903601814"><ele>53.97</ele><time>2026-08-31T23:24:45Z</time></trkpt><trkpt lat="59.4547765050" lon="31.0903577507"><ele>54.45</ele><time>2026-08-31T23:25:10Z</time></trkpt><trkpt lat="59.4547757506" lon="31.0903414898"><ele>54.45</ele><time>2026-08-31T23:25:36Z</time></trkpt><trkpt lat="59.4547740743" lon="31.0903471056"><ele>54.45</ele><time>2026-08-31T23:25:54Z</time></trkpt><trkpt lat="59.4547610823" lon="31.0903098062"><ele>54.45</ele><time>2026-08-31T23:26:15Z</time></trkpt><trkpt lat="59.4547511078" lon="31.0903001670"><ele>54.45</ele><time>2026-08-31T23:26:32Z</time></trkpt><trkpt lat="59.4547097012" lon="31.0902475286"><ele>54.45</ele><time>2026-08-31T23:26:45Z</time></trkpt><trkpt lat="59.4547053427" lon="31.0902395658"><ele>54.45</ele><time>2026-08-31T23:27:00Z</time></trkpt><trkpt lat="59.4547050912" lon="31.0902535636"><ele>54.45</ele><time>2026-08-31T23:27:17Z</time></trkpt><trkpt lat="59.4547779299" lon="31.0903530568"><ele>54.45</ele><time>2026-08-31T23:27:30Z</time></trkpt><trkpt lat="59.4547763374" lon="31.0903430823"><ele>54.45</ele><time>2026-08-31T23:27:44Z</time></trkpt><trkpt lat="59.4547823723" lon="31.0903212894"><ele>53.01</ele><time>2026-08-31T23:28:04Z</time></trkpt><trkpt lat="59.4547895808" lon="31.0903107282"><ele>53.49</ele><time>2026-08-31T23:28:39Z</time></trkpt><trkpt lat="59.4547837973" lon="31.0903072916"><ele>54.45</ele><time>2026-08-31T23:29:11Z</time></trkpt><trkpt lat="59.4547828753" lon="31.0903098900"><ele>54.45</ele><time>2026-08-31T23:29:37Z</time></trkpt><trkpt lat="59.4547777623" lon="31.0903122369"><ele>54.45</ele><time>2026-08-31T23:30:07Z</time></trkpt><trkpt lat="59.4547786843" lon="31.0903051961"><ele>54.45</ele><time>2026-08-31T23:30:29Z</time></trkpt><trkpt lat="59.4547806960" lon="31.0902803857"><ele>53.49</ele><time>2026-08-31T23:31:00Z</time></trkpt><trkpt lat="59.4547830429" lon="31.0902860854"><ele>53.49</ele><time>2026-08-31T23:31:28Z</time></trkpt><trkpt lat="59.4547879044" lon="31.0903233849"><ele>53.49</ele><time>2026-08-31T23:31:44Z</time></trkpt><trkpt lat="59.4547912572" lon="31.0903258994"><ele>53.49</ele><time>2026-08-31T23:32:06Z</time></trkpt><trkpt lat="59.4547786843" lon="31.0903528892"><ele>53.01</ele><time>2026-08-31T23:32:21Z</time></trkpt><trkpt lat="59.4547625072" lon="31.0903249774"><ele>53.01</ele><time>2026-08-31T23:32:32Z</time></trkpt><trkpt lat="59.4547654409" lon="31.0903124884"><ele>52.53</ele><time>2026-08-31T23:32:58Z</time></trkpt><trkpt lat="59.4547630101" lon="31.0903106444"><ele>52.53</ele><time>2026-08-31T23:33:29Z</time></trkpt><trkpt lat="59.4547609147" lon="31.0903067887"><ele>52.53</ele><time>2026-08-31T23:33:58Z</time></trkpt><trkpt lat="59.4547615014" lon="31.0902966466"><ele>52.53</ele><time>2026-08-31T23:34:32Z</time></trkpt><trkpt lat="59.4547701348" lon="31.0902901087"><ele>52.53</ele><time>2026-08-31T23:35:01Z</time></trkpt><trkpt lat="59.4547734875" lon="31.0902862530"><ele>52.53</ele><time>2026-08-31T23:35:33Z</time></trkpt><trkpt lat="59.4547673687" lon="31.0902801342"><ele>52.53</ele><time>2026-08-31T23:36:05Z</time></trkpt><trkpt lat="59.4547625072" lon="31.0902821459"><ele>52.53</ele><time>2026-08-31T23:36:36Z</time></trkpt><trkpt lat="59.4547643512" lon="31.0902891867"><ele>52.53</ele><time>2026-08-31T23:37:07Z</time></trkpt><trkpt lat="59.4547621720" lon="31.0902937967"><ele>53.01</ele><time>2026-08-31T23:37:39Z</time></trkpt><trkpt lat="59.4547637645" lon="31.0903058667"><ele>53.01</ele><time>2026-08-31T23:38:09Z</time></trkpt><trkpt lat="59.4547648542" lon="31.0903108958"><ele>53.01</ele><time>2026-08-31T23:38:32Z</time></trkpt><trkpt lat="59.4547661953" lon="31.0903236363"><ele>53.01</ele><time>2026-08-31T23:38:40Z</time></trkpt><trkpt lat="59.4547538739" lon="31.0904176813"><ele>53.01</ele><time>2026-08-31T23:38:46Z</time></trkpt><trkpt lat="59.4544336852" lon="31.0900327004"><ele>53.01</ele><time>2026-08-31T23:38:57Z</time></trkpt><trkpt lat="59.4535137713" lon="31.0888919234"><ele>53.01</ele><time>2026-08-31T23:39:15Z</time></trkpt><trkpt lat="59.4527763315" lon="31.0871013813"><ele>53.01</ele><time>2026-08-31T23:39:33Z</time></trkpt><trkpt lat="59.4520305097" lon="31.0849886388"><ele>53.01</ele><time>2026-08-31T23:39:52Z</time></trkpt><trkpt lat="59.4518222194" lon="31.0843902547"><ele>53.01</ele><time>2026-08-31T23:39:59Z</time></trkpt><trkpt lat="59.4518107362" lon="31.0843086150"><ele>53.01</ele><time>2026-08-31T23:40:00Z</time></trkpt><trkpt lat="59.4518150110" lon="31.0842263047"><ele>53.01</ele><time>2026-08-31T23:40:01Z</time></trkpt><trkpt lat="59.4518311881" lon="31.0841497779"><ele>53.01</ele><time>2026-08-31T23:40:02Z</time></trkpt><trkpt lat="59.4518531486" lon="31.0840652883"><ele>53.01</ele><time>2026-08-31T23:40:03Z</time></trkpt><trkpt lat="59.4518774562" lon="31.0839901026"><ele>53.01</ele><time>2026-08-31T23:40:04Z</time></trkpt><trkpt lat="59.4519087207" lon="31.0839160904"><ele>53.01</ele><time>2026-08-31T23:40:05Z</time></trkpt><trkpt lat="59.4519476965" lon="31.0838407371"><ele>53.01</ele><time>2026-08-31T23:40:06Z</time></trkpt><trkpt lat="59.4522069488" lon="31.0833993461"><ele>53.49</ele><time>2026-08-31T23:40:11Z</time></trkpt><trkpt lat="59.4534574449" lon="31.0816717520"><ele>54.45</ele><time>2026-08-31T23:40:26Z</time></trkpt><trkpt lat="59.4550348353" lon="31.0789767187"><ele>54.93</ele><time>2026-08-31T23:40:49Z</time></trkpt><trkpt lat="59.4563213736" lon="31.0765624791"><ele>55.41</ele><time>2026-08-31T23:41:08Z</time></trkpt><trkpt lat="59.4575173873" lon="31.0742962640"><ele>55.89</ele><time>2026-08-31T23:41:27Z</time></trkpt><trkpt lat="59.4589010719" lon="31.0716850497"><ele>55.89</ele><time>2026-08-31T23:41:48Z</time></trkpt><trkpt lat="59.4601207227" lon="31.0693265498"><ele>54.45</ele><time>2026-08-31T23:42:09Z</time></trkpt><trkpt lat="59.4612723961" lon="31.0671847221"><ele>54.45</ele><time>2026-08-31T23:42:29Z</time></trkpt><trkpt lat="59.4625559170" lon="31.0646862444"><ele>54.45</ele><time>2026-08-31T23:42:49Z</time></trkpt><trkpt lat="59.4638012163" lon="31.0623118188"><ele>54.45</ele><time>2026-08-31T23:43:10Z</time></trkpt><trkpt lat="59.4650250580" lon="31.0600555781"><ele>54.45</ele><time>2026-08-31T23:43:32Z</time></trkpt><trkpt lat="59.4662501570" lon="31.0577143449"><ele>54.45</ele><time>2026-08-31T23:43:51Z</time></trkpt><trkpt lat="59.4676647708" lon="31.0548539367"><ele>54.45</ele><time>2026-08-31T23:44:12Z</time></trkpt><trkpt lat="59.4689912070" lon="31.0523188300"><ele>54.45</ele><time>2026-08-31T23:44:32Z</time></trkpt><trkpt lat="59.4704413600" lon="31.0493961442"><ele>54.45</ele><time>2026-08-31T23:44:55Z</time></trkpt><trkpt lat="59.4719666149" lon="31.0465976782"><ele>53.49</ele><time>2026-08-31T23:45:18Z</time></trkpt><trkpt lat="59.4721911661" lon="31.0462375078"><ele>53.49</ele><time>2026-08-31T23:45:27Z</time></trkpt><trkpt lat="59.4723071717" lon="31.0464758892"><ele>53.49</ele><time>2026-08-31T23:45:44Z</time></trkpt><trkpt lat="59.4723085966" lon="31.0465004481"><ele>53.49</ele><time>2026-08-31T23:45:45Z</time></trkpt><trkpt lat="59.4724215847" lon="31.0467861034"><ele>53.01</ele><time>2026-08-31T23:45:58Z</time></trkpt><trkpt lat="59.4726475608" lon="31.0473974794"><ele>52.53</ele><time>2026-08-31T23:46:13Z</time></trkpt><trkpt lat="59.4726599660" lon="31.0474113096"><ele>52.53</ele><time>2026-08-31T23:46:28Z</time></trkpt><trkpt lat="59.4727290329" lon="31.0477168299"><ele>52.53</ele><time>2026-08-31T23:46:48Z</time></trkpt><trkpt lat="59.4730777200" lon="31.0488933139"><ele>52.53</ele><time>2026-08-31T23:47:05Z</time></trkpt><trkpt lat="59.4733389840" lon="31.0496393871"><ele>52.53</ele><time>2026-08-31T23:47:20Z</time></trkpt><trkpt lat="59.4734052010" lon="31.0498895869"><ele>52.53</ele><time>2026-08-31T23:47:33Z</time></trkpt><trkpt lat="59.4734837394" lon="31.0502924211"><ele>52.53</ele><time>2026-08-31T23:47:44Z</time></trkpt><trkpt lat="59.4737410638" lon="31.0510297772"><ele>52.53</ele><time>2026-08-31T23:47:57Z</time></trkpt><trkpt lat="59.4741058443" lon="31.0522983782"><ele>52.53</ele><time>2026-08-31T23:48:17Z</time></trkpt><trkpt lat="59.4741446525" lon="31.0524215084"><ele>52.53</ele><time>2026-08-31T23:48:24Z</time></trkpt><trkpt lat="59.4741507713" lon="31.0524422117"><ele>52.53</ele><time>2026-08-31T23:48:25Z</time></trkpt><trkpt lat="59.4741600752" lon="31.0524707101"><ele>52.53</ele><time>2026-08-31T23:48:26Z</time></trkpt><trkpt lat="59.4743993785" lon="31.0532099940"><ele>53.49</ele><time>2026-08-31T23:48:39Z</time></trkpt><trkpt lat="59.4744923338" lon="31.0535898618"><ele>53.49</ele><time>2026-08-31T23:48:50Z</time></trkpt><trkpt lat="59.4745963532" lon="31.0539438296"><ele>53.97</ele><time>2026-08-31T23:49:01Z</time></trkpt><trkpt lat="59.4748514984" lon="31.0546451434"><ele>53.97</ele><time>2026-08-31T23:49:18Z</time></trkpt><trkpt lat="59.4752052985" lon="31.0557068791"><ele>54.93</ele><time>2026-08-31T23:49:36Z</time></trkpt><trkpt lat="59.4754921272" lon="31.0568444710"><ele>54.93</ele><time>2026-08-31T23:49:51Z</time></trkpt><trkpt lat="59.4758849032" lon="31.0581707396"><ele>55.41</ele><time>2026-08-31T23:50:10Z</time></trkpt><trkpt lat="59.4763192534" lon="31.0590525158"><ele>55.41</ele><time>2026-08-31T23:50:26Z</time></trkpt><trkpt lat="59.4765056670" lon="31.0595212318"><ele>55.41</ele><time>2026-08-31T23:50:39Z</time></trkpt><trkpt lat="59.4765894022" lon="31.0595467128"><ele>55.41</ele><time>2026-08-31T23:50:52Z</time></trkpt><trkpt lat="59.4766812678" lon="31.0601781216"><ele>55.41</ele><time>2026-08-31T23:51:06Z</time></trkpt><trkpt lat="59.4768609758" lon="31.0612336546"><ele>55.41</ele><time>2026-08-31T23:51:23Z</time></trkpt><trkpt lat="59.4771679211" lon="31.0626160819"><ele>55.41</ele><time>2026-08-31T23:51:42Z</time></trkpt><trkpt lat="59.4774373155" lon="31.0633251909"><ele>55.41</ele><time>2026-08-31T23:51:59Z</time></trkpt><trkpt lat="59.4774515647" lon="31.0633500014"><ele>55.41</ele><time>2026-08-31T23:52:15Z</time></trkpt><trkpt lat="59.4775067177" lon="31.0636372492"><ele>55.41</ele><time>2026-08-31T23:52:32Z</time></trkpt><trkpt lat="59.4778856635" lon="31.0648149066"><ele>55.41</ele><time>2026-08-31T23:52:50Z</time></trkpt><trkpt lat="59.4782359432" lon="31.0658338945"><ele>55.41</ele><time>2026-08-31T23:53:04Z</time></trkpt><trkpt lat="59.4785753265" lon="31.0667748470"><ele>54.45</ele><time>2026-08-31T23:53:21Z</time></trkpt><trkpt lat="59.4788594730" lon="31.0675090179"><ele>54.45</ele><time>2026-08-31T23:53:37Z</time></trkpt><trkpt lat="59.4793088268" lon="31.0688585881"><ele>54.45</ele><time>2026-08-31T23:53:56Z</time></trkpt><trkpt lat="59.4796916284" lon="31.0698028933"><ele>54.45</ele><time>2026-08-31T23:54:13Z</time></trkpt><trkpt lat="59.4799088873" lon="31.0701410193"><ele>54.45</ele><time>2026-08-31T23:54:25Z</time></trkpt><trkpt lat="59.4802101329" lon="31.0702464636"><ele>53.97</ele><time>2026-08-31T23:54:41Z</time></trkpt><trkpt lat="59.4801868312" lon="31.0702528339"><ele>53.97</ele><time>2026-08-31T23:54:44Z</time></trkpt><trkpt lat="59.4800234679" lon="31.0702018719"><ele>53.97</ele><time>2026-08-31T23:55:03Z</time></trkpt><trkpt lat="59.4799872581" lon="31.0703169554"><ele>51.57</ele><time>2026-08-31T23:57:20Z</time></trkpt><trkpt lat="59.4799763616" lon="31.0703030415"><ele>51.57</ele><time>2026-08-31T23:57:21Z</time></trkpt><trkpt lat="59.4800466020" lon="31.0702270176"><ele>50.61</ele><time>2026-08-31T23:57:34Z</time></trkpt><trkpt lat="59.4800719991" lon="31.0702226590"><ele>53.97</ele><time>2026-08-31T23:57:44Z</time></trkpt><trkpt lat="59.4800523017" lon="31.0702276882"><ele>56.86</ele><time>2026-08-31T23:57:58Z</time></trkpt><trkpt lat="59.4800433330" lon="31.0702375788"><ele>59.26</ele><time>2026-08-31T23:58:23Z</time></trkpt><trkpt lat="59.4800201990" lon="31.0702162888"><ele>59.26</ele><time>2026-08-31T23:58:55Z</time></trkpt><trkpt lat="59.4799688179" lon="31.0701564420"><ele>59.26</ele><time>2026-08-31T23:58:59Z</time></trkpt><trkpt lat="59.4799098931" lon="31.0701214056"><ele>59.26</ele><time>2026-08-31T23:59:03Z</time></trkpt><trkpt lat="59.4798119925" lon="31.0699166358"><ele>59.26</ele><time>2026-08-31T23:59:17Z</time></trkpt><trkpt lat="59.4798017666" lon="31.0698886402"><ele>58.78</ele><time>2026-08-31T23:59:30Z</time></trkpt><trkpt lat="59.4798092265" lon="31.0698810127"><ele>58.30</ele><time>2026-08-31T23:59:46Z</time></trkpt><trkpt lat="59.4798117410" lon="31.0698806774"><ele>57.82</ele><time>2026-09-01T00:00:07Z</time></trkpt><trkpt lat="59.4798104838" lon="31.0699437093"><ele>57.82</ele><time>2026-09-01T00:00:24Z</time></trkpt><trkpt lat="59.4798119925" lon="31.0699652508"><ele>57.82</ele><time>2026-09-01T00:00:25Z</time></trkpt><trkpt lat="59.4798189495" lon="31.0700113513"><ele>57.82</ele><time>2026-09-01T00:00:27Z</time></trkpt><trkpt lat="59.4798616134" lon="31.0700865369"><ele>57.82</ele><time>2026-09-01T00:00:32Z</time></trkpt><trkpt lat="59.4799454324" lon="31.0701924842"><ele>57.82</ele><time>2026-09-01T00:00:41Z</time></trkpt><trkpt lat="59.4800101407" lon="31.0702506546"><ele>57.82</ele><time>2026-09-01T00:00:56Z</time></trkpt><trkpt lat="59.4800075423" lon="31.0702550132"><ele>57.82</ele><time>2026-09-01T00:01:08Z</time></trkpt><trkpt lat="59.4800139964" lon="31.0702485591"><ele>57.82</ele><time>2026-09-01T00:01:31Z</time></trkpt><trkpt lat="59.4800041895" lon="31.0702509899"><ele>57.82</ele><time>2026-09-01T00:01:51Z</time></trkpt><trkpt lat="59.4800071232" lon="31.0702464636"><ele>57.82</ele><time>2026-09-01T00:02:11Z</time></trkpt><trkpt lat="59.4800078776" lon="31.0702427756"><ele>57.82</ele><time>2026-09-01T00:02:32Z</time></trkpt><trkpt lat="59.4800125714" lon="31.0702401772"><ele>57.82</ele><time>2026-09-01T00:02:53Z</time></trkpt><trkpt lat="59.4800112303" lon="31.0702345613"><ele>57.82</ele><time>2026-09-01T00:03:08Z</time></trkpt><trkpt lat="59.4800078776" lon="31.0702251736"><ele>57.82</ele><time>2026-09-01T00:03:20Z</time></trkpt><trkpt lat="59.4800569117" lon="31.0701935738"><ele>57.82</ele><time>2026-09-01T00:03:26Z</time></trkpt><trkpt lat="59.4802173413" lon="31.0702253412"><ele>57.82</ele><time>2026-09-01T00:03:40Z</time></trkpt><trkpt lat="59.4802734163" lon="31.0702232458"><ele>57.82</ele><time>2026-09-01T00:03:45Z</time></trkpt><trkpt lat="59.4803875778" lon="31.0701393429"><ele>57.82</ele><time>2026-09-01T00:03:57Z</time></trkpt><trkpt lat="59.4805421401" lon="31.0701251775"><ele>57.34</ele><time>2026-09-01T00:04:11Z</time></trkpt><trkpt lat="59.4806819502" lon="31.0700625647"><ele>57.34</ele><time>2026-09-01T00:04:27Z</time></trkpt><trkpt lat="59.4807825331" lon="31.0700136144"><ele>57.34</ele><time>2026-09-01T00:04:40Z</time></trkpt><trkpt lat="59.4809304737" lon="31.0699996166"><ele>57.34</ele><time>2026-09-01T00:04:52Z</time></trkpt><trkpt lat="59.4811294600" lon="31.0700083338"><ele>57.34</ele><time>2026-09-01T00:05:08Z</time></trkpt><trkpt lat="59.4811288733" lon="31.0700060707"><ele>57.34</ele><time>2026-09-01T00:05:23Z</time></trkpt><trkpt lat="59.4811789133" lon="31.0700266063"><ele>57.34</ele><time>2026-09-01T00:05:36Z</time></trkpt><trkpt lat="59.4812609721" lon="31.0699965153"><ele>57.34</ele><time>2026-09-01T00:05:47Z</time></trkpt><trkpt lat="59.4813373312" lon="31.0699772369"><ele>57.34</ele><time>2026-09-01T00:05:56Z</time></trkpt><trkpt lat="59.4815059751" lon="31.0700660013"><ele>57.34</ele><time>2026-09-01T00:06:13Z</time></trkpt><trkpt lat="59.4815158658" lon="31.0700501595"><ele>57.34</ele><time>2026-09-01T00:06:27Z</time></trkpt><trkpt lat="59.4816431869" lon="31.0701534245"><ele>57.34</ele><time>2026-09-01T00:06:39Z</time></trkpt><trkpt lat="59.4816954061" lon="31.0702107567"><ele>57.34</ele><time>2026-09-01T00:06:44Z</time></trkpt><trkpt lat="59.4817589410" lon="31.0702705197"><ele>57.34</ele><time>2026-09-01T00:06:49Z</time></trkpt><trkpt lat="59.4818689954" lon="31.0703149438"><ele>57.34</ele><time>2026-09-01T00:07:04Z</time></trkpt><trkpt lat="59.4818780478" lon="31.0703166202"><ele>57.34</ele><time>2026-09-01T00:07:05Z</time></trkpt><trkpt lat="59.4820254855" lon="31.0704053845"><ele>57.34</ele><time>2026-09-01T00:07:19Z</time></trkpt><trkpt lat="59.4821177702" lon="31.0704850964"><ele>57.34</ele><time>2026-09-01T00:07:28Z</time></trkpt><trkpt lat="59.4821411557" lon="31.0705118347"><ele>57.34</ele><time>2026-09-01T00:07:30Z</time></trkpt><trkpt lat="59.4821753539" lon="31.0705361422"><ele>57.34</ele><time>2026-09-01T00:07:33Z</time></trkpt><trkpt lat="59.4823274855" lon="31.0706691630"><ele>57.34</ele><time>2026-09-01T00:07:48Z</time></trkpt><trkpt lat="59.4824714866" lon="31.0707662255"><ele>57.82</ele><time>2026-09-01T00:08:01Z</time></trkpt><trkpt lat="59.4825993944" lon="31.0709167644"><ele>57.82</ele><time>2026-09-01T00:08:16Z</time></trkpt><trkpt lat="59.4826139789" lon="31.0709264036"><ele>57.82</ele><time>2026-09-01T00:08:17Z</time></trkpt><trkpt lat="59.4827444013" lon="31.0710146651"><ele>57.82</ele><time>2026-09-01T00:08:26Z</time></trkpt><trkpt lat="59.4828816131" lon="31.0711310059"><ele>57.82</ele><time>2026-09-01T00:08:38Z</time></trkpt><trkpt lat="59.4830258656" lon="31.0712429043"><ele>57.82</ele><time>2026-09-01T00:08:51Z</time></trkpt><trkpt lat="59.4831142109" lon="31.0713992268"><ele>57.82</ele><time>2026-09-01T00:09:02Z</time></trkpt><trkpt lat="59.4831505883" lon="31.0714988038"><ele>57.82</ele><time>2026-09-01T00:09:09Z</time></trkpt><trkpt lat="59.4832315575" lon="31.0716549587"><ele>57.82</ele><time>2026-09-01T00:09:21Z</time></trkpt><trkpt lat="59.4832922425" lon="31.0718223453"><ele>57.82</ele><time>2026-09-01T00:09:34Z</time></trkpt><trkpt lat="59.4832750596" lon="31.0717930924"><ele>57.82</ele><time>2026-09-01T00:09:59Z</time></trkpt><trkpt lat="59.4832720421" lon="31.0718303919"><ele>57.82</ele><time>2026-09-01T00:10:23Z</time></trkpt><trkpt lat="59.4832714554" lon="31.0718319006"><ele>57.82</ele><time>2026-09-01T00:10:50Z</time></trkpt><trkpt lat="59.4833066594" lon="31.0718762409"><ele>57.82</ele><time>2026-09-01T00:11:03Z</time></trkpt><trkpt lat="59.4833473954" lon="31.0719462298"><ele>57.82</ele><time>2026-09-01T00:11:08Z</time></trkpt><trkpt lat="59.4834162109" lon="31.0720977746"><ele>57.82</ele><time>2026-09-01T00:11:15Z</time></trkpt><trkpt lat="59.4834951684" lon="31.0722639877"><ele>57.82</ele><time>2026-09-01T00:11:23Z</time></trkpt><trkpt lat="59.4835968409" lon="31.0724732000"><ele>57.82</ele><time>2026-09-01T00:11:33Z</time></trkpt><trkpt lat="59.4836612977" lon="31.0725752078"><ele>57.82</ele><time>2026-09-01T00:11:43Z</time></trkpt><trkpt lat="59.4836848509" lon="31.0726233199"><ele>57.82</ele><time>2026-09-01T00:11:46Z</time></trkpt><trkpt lat="59.4837899599" lon="31.0726909619"><ele>57.82</ele><time>2026-09-01T00:11:55Z</time></trkpt><trkpt lat="59.4838456996" lon="31.0727650579"><ele>57.82</ele><time>2026-09-01T00:12:00Z</time></trkpt><trkpt lat="59.4839738589" lon="31.0730066244"><ele>57.82</ele><time>2026-09-01T00:12:15Z</time></trkpt><trkpt lat="59.4840762857" lon="31.0731164273"><ele>57.82</ele><time>2026-09-01T00:12:25Z</time></trkpt><trkpt lat="59.4841310196" lon="31.0731933732"><ele>57.82</ele><time>2026-09-01T00:12:31Z</time></trkpt><trkpt lat="59.4842228852" lon="31.0733370390"><ele>57.82</ele><time>2026-09-01T00:12:41Z</time></trkpt><trkpt lat="59.4843205344" lon="31.0735071916"><ele>57.34</ele><time>2026-09-01T00:12:56Z</time></trkpt><trkpt lat="59.4843219593" lon="31.0735087004"><ele>57.34</ele><time>2026-09-01T00:12:57Z</time></trkpt><trkpt lat="59.4843681436" lon="31.0735683795"><ele>57.34</ele><time>2026-09-01T00:13:01Z</time></trkpt><trkpt lat="59.4845206104" lon="31.0737763345"><ele>57.34</ele><time>2026-09-01T00:13:18Z</time></trkpt><trkpt lat="59.4846382085" lon="31.0739738960"><ele>57.34</ele><time>2026-09-01T00:13:31Z</time></trkpt><trkpt lat="59.4847350195" lon="31.0741266981"><ele>57.34</ele><time>2026-09-01T00:13:44Z</time></trkpt><trkpt lat="59.4848571438" lon="31.0742880497"><ele>57.34</ele><time>2026-09-01T00:13:57Z</time></trkpt><trkpt lat="59.4848633464" lon="31.0743050650"><ele>57.34</ele><time>2026-09-01T00:13:58Z</time></trkpt><trkpt lat="59.4849106204" lon="31.0744656622"><ele>57.34</ele><time>2026-09-01T00:14:07Z</time></trkpt><trkpt lat="59.4849403761" lon="31.0744956695"><ele>57.34</ele><time>2026-09-01T00:14:10Z</time></trkpt><trkpt lat="59.4849783462" lon="31.0745002795"><ele>57.34</ele><time>2026-09-01T00:14:13Z</time></trkpt><trkpt lat="59.4850229379" lon="31.0745837633"><ele>56.86</ele><time>2026-09-01T00:14:18Z</time></trkpt><trkpt lat="59.4850958604" lon="31.0746588651"><ele>56.86</ele><time>2026-09-01T00:14:24Z</time></trkpt><trkpt lat="59.4851952698" lon="31.0747879464"><ele>56.86</ele><time>2026-09-01T00:14:33Z</time></trkpt><trkpt lat="59.4852202479" lon="31.0748421773"><ele>56.86</ele><time>2026-09-01T00:14:36Z</time></trkpt><trkpt lat="59.4852529373" lon="31.0748741124"><ele>56.86</ele><time>2026-09-01T00:14:39Z</time></trkpt><trkpt lat="59.4853124488" lon="31.0749528185"><ele>56.86</ele><time>2026-09-01T00:14:45Z</time></trkpt><trkpt lat="59.4853423722" lon="31.0749830771"><ele>56.86</ele><time>2026-09-01T00:14:49Z</time></trkpt><trkpt lat="59.4854410272" lon="31.0751715861"><ele>56.86</ele><time>2026-09-01T00:15:02Z</time></trkpt><trkpt lat="59.4854485709" lon="31.0751994979"><ele>56.86</ele><time>2026-09-01T00:15:04Z</time></trkpt><trkpt lat="59.4855055679" lon="31.0753061995"><ele>56.86</ele><time>2026-09-01T00:15:18Z</time></trkpt><trkpt lat="59.4855278637" lon="31.0753505398"><ele>56.37</ele><time>2026-09-01T00:15:49Z</time></trkpt><trkpt lat="59.4855508301" lon="31.0753027629"><ele>56.37</ele><time>2026-09-01T00:16:21Z</time></trkpt><trkpt lat="59.4855587929" lon="31.0753076244"><ele>56.37</ele><time>2026-09-01T00:16:22Z</time></trkpt><trkpt lat="59.4856970105" lon="31.0755433235"><ele>55.89</ele><time>2026-09-01T00:16:38Z</time></trkpt><trkpt lat="59.4857425243" lon="31.0756322555"><ele>55.89</ele><time>2026-09-01T00:16:43Z</time></trkpt><trkpt lat="59.4857837632" lon="31.0757279769"><ele>55.89</ele><time>2026-09-01T00:16:48Z</time></trkpt><trkpt lat="59.4858250860" lon="31.0757996421"><ele>55.89</ele><time>2026-09-01T00:16:54Z</time></trkpt><trkpt lat="59.4859541673" lon="31.0759531986"><ele>55.89</ele><time>2026-09-01T00:17:07Z</time></trkpt><trkpt lat="59.4860255811" lon="31.0759900790"><ele>55.89</ele><time>2026-09-01T00:17:13Z</time></trkpt><trkpt lat="59.4861492980" lon="31.0761894844"><ele>55.89</ele><time>2026-09-01T00:17:26Z</time></trkpt><trkpt lat="59.4861572608" lon="31.0761982854"><ele>55.89</ele><time>2026-09-01T00:17:27Z</time></trkpt><trkpt lat="59.4863311853" lon="31.0764185619"><ele>55.41</ele><time>2026-09-01T00:17:45Z</time></trkpt><trkpt lat="59.4864811376" lon="31.0766323842"><ele>55.41</ele><time>2026-09-01T00:18:00Z</time></trkpt><trkpt lat="59.4865330216" lon="31.0767682549"><ele>55.41</ele><time>2026-09-01T00:18:11Z</time></trkpt><trkpt lat="59.4866305031" lon="31.0769611225"><ele>55.41</ele><time>2026-09-01T00:18:24Z</time></trkpt><trkpt lat="59.4866825547" lon="31.0770027805"><ele>55.41</ele><time>2026-09-01T00:18:30Z</time></trkpt><trkpt lat="59.4867073651" lon="31.0770079773"><ele>55.41</ele><time>2026-09-01T00:18:32Z</time></trkpt><trkpt lat="59.4867403060" lon="31.0770411696"><ele>54.93</ele><time>2026-09-01T00:18:35Z</time></trkpt><trkpt lat="59.4868040085" lon="31.0771285091"><ele>54.93</ele><time>2026-09-01T00:18:48Z</time></trkpt><trkpt lat="59.4867988955" lon="31.0771622043"><ele>54.45</ele><time>2026-09-01T00:19:20Z</time></trkpt><trkpt lat="59.4868339319" lon="31.0771214683"><ele>54.45</ele><time>2026-09-01T00:19:54Z</time></trkpt><trkpt lat="59.4868489355" lon="31.0771461111"><ele>54.45</ele><time>2026-09-01T00:19:56Z</time></trkpt><trkpt lat="59.4868688844" lon="31.0771614499"><ele>54.45</ele><time>2026-09-01T00:19:58Z</time></trkpt><trkpt lat="59.4869344309" lon="31.0772659723"><ele>54.45</ele><time>2026-09-01T00:20:04Z</time></trkpt><trkpt lat="59.4869957026" lon="31.0772972368"><ele>54.45</ele><time>2026-09-01T00:20:10Z</time></trkpt><trkpt lat="59.4870749116" lon="31.0774129909"><ele>54.45</ele><time>2026-09-01T00:20:18Z</time></trkpt><trkpt lat="59.4871818647" lon="31.0775915254"><ele>53.97</ele><time>2026-09-01T00:20:29Z</time></trkpt><trkpt lat="59.4873506762" lon="31.0777802859"><ele>53.97</ele><time>2026-09-01T00:20:44Z</time></trkpt><trkpt lat="59.4875019696" lon="31.0779562220"><ele>53.97</ele><time>2026-09-01T00:20:59Z</time></trkpt><trkpt lat="59.4875204936" lon="31.0780071001"><ele>54.45</ele><time>2026-09-01T00:21:02Z</time></trkpt><trkpt lat="59.4876015466" lon="31.0781054199"><ele>54.45</ele><time>2026-09-01T00:21:11Z</time></trkpt><trkpt lat="59.4877029676" lon="31.0782669391"><ele>54.45</ele><time>2026-09-01T00:21:25Z</time></trkpt><trkpt lat="59.4877929892" lon="31.0784319788"><ele>54.45</ele><time>2026-09-01T00:21:39Z</time></trkpt><trkpt lat="59.4878073223" lon="31.0784496646"><ele>54.45</ele><time>2026-09-01T00:21:41Z</time></trkpt><trkpt lat="59.4878302049" lon="31.0784872994"><ele>53.97</ele><time>2026-09-01T00:21:44Z</time></trkpt><trkpt lat="59.4878604636" lon="31.0785477329"><ele>53.97</ele><time>2026-09-01T00:21:47Z</time></trkpt><trkpt lat="59.4878851902" lon="31.0785795003"><ele>53.97</ele><time>2026-09-01T00:21:50Z</time></trkpt><trkpt lat="59.4879851863" lon="31.0787534248"><ele>53.97</ele><time>2026-09-01T00:22:02Z</time></trkpt><trkpt lat="59.4880453683" lon="31.0788281914"><ele>53.97</ele><time>2026-09-01T00:22:10Z</time></trkpt><trkpt lat="59.4881249964" lon="31.0789854359"><ele>53.97</ele><time>2026-09-01T00:22:21Z</time></trkpt><trkpt lat="59.4881645590" lon="31.0790117551"><ele>53.97</ele><time>2026-09-01T00:22:25Z</time></trkpt><trkpt lat="59.4882676564" lon="31.0790881980"><ele>53.97</ele><time>2026-09-01T00:22:37Z</time></trkpt><trkpt lat="59.4883829914" lon="31.0792285111"><ele>53.97</ele><time>2026-09-01T00:22:50Z</time></trkpt><trkpt lat="59.4884958118" lon="31.0793748591"><ele>53.97</ele><time>2026-09-01T00:23:03Z</time></trkpt><trkpt lat="59.4885240588" lon="31.0794128291"><ele>54.93</ele><time>2026-09-01T00:23:17Z</time></trkpt><trkpt lat="59.4885271601" lon="31.0794090573"><ele>54.93</ele><time>2026-09-01T00:23:51Z</time></trkpt><trkpt lat="59.4885197002" lon="31.0794331133"><ele>54.93</ele><time>2026-09-01T00:24:24Z</time></trkpt><trkpt lat="59.4885128271" lon="31.0794404894"><ele>54.45</ele><time>2026-09-01T00:24:54Z</time></trkpt><trkpt lat="59.4885493722" lon="31.0794261564"><ele>54.93</ele><time>2026-09-01T00:25:32Z</time></trkpt><trkpt lat="59.4886197802" lon="31.0795182735"><ele>54.93</ele><time>2026-09-01T00:25:43Z</time></trkpt><trkpt lat="59.4887354504" lon="31.0797188524"><ele>54.93</ele><time>2026-09-01T00:25:57Z</time></trkpt><trkpt lat="59.4888369553" lon="31.0798449162"><ele>54.45</ele><time>2026-09-01T00:26:09Z</time></trkpt><trkpt lat="59.4888511207" lon="31.0798750911"><ele>54.45</ele><time>2026-09-01T00:26:13Z</time></trkpt><trkpt lat="59.4888682198" lon="31.0799259692"><ele>54.45</ele><time>2026-09-01T00:26:16Z</time></trkpt><trkpt lat="59.4889413938" lon="31.0800309945"><ele>54.45</ele><time>2026-09-01T00:26:28Z</time></trkpt><trkpt lat="59.4889896736" lon="31.0801099520"><ele>54.45</ele><time>2026-09-01T00:26:38Z</time></trkpt><trkpt lat="59.4890035037" lon="31.0801061802"><ele>54.45</ele><time>2026-09-01T00:27:09Z</time></trkpt><trkpt lat="59.4889998157" lon="31.0801320802"><ele>54.45</ele><time>2026-09-01T00:27:28Z</time></trkpt><trkpt lat="59.4890085328" lon="31.0801299848"><ele>54.45</ele><time>2026-09-01T00:27:51Z</time></trkpt><trkpt lat="59.4890045933" lon="31.0801672842"><ele>54.45</ele><time>2026-09-01T00:28:08Z</time></trkpt><trkpt lat="59.4889924396" lon="31.0801782645"><ele>54.45</ele><time>2026-09-01T00:28:34Z</time></trkpt><trkpt lat="59.4889970496" lon="31.0801521130"><ele>54.45</ele><time>2026-09-01T00:29:00Z</time></trkpt><trkpt lat="59.4890017435" lon="31.0801335052"><ele>54.45</ele><time>2026-09-01T00:29:17Z</time></trkpt><trkpt lat="59.4889971334" lon="31.0801309906"><ele>54.45</ele><time>2026-09-01T00:29:18Z</time></trkpt><trkpt lat="59.4889232051" lon="31.0800515302"><ele>54.45</ele><time>2026-09-01T00:29:30Z</time></trkpt><trkpt lat="59.4888434932" lon="31.0798960458"><ele>54.45</ele><time>2026-09-01T00:29:42Z</time></trkpt><trkpt lat="59.4887780305" lon="31.0798386298"><ele>54.45</ele><time>2026-09-01T00:29:54Z</time></trkpt><trkpt lat="59.4887573272" lon="31.0798122268"><ele>54.45</ele><time>2026-09-01T00:30:14Z</time></trkpt><trkpt lat="59.4887486100" lon="31.0798140708"><ele>54.45</ele><time>2026-09-01T00:30:49Z</time></trkpt><trkpt lat="59.4887398090" lon="31.0798395518"><ele>54.45</ele><time>2026-09-01T00:31:17Z</time></trkpt><trkpt lat="59.4887489453" lon="31.0798339359"><ele>54.45</ele><time>2026-09-01T00:31:43Z</time></trkpt><trkpt lat="59.4887217041" lon="31.0798916873"><ele>54.45</ele><time>2026-09-01T00:31:57Z</time></trkpt><trkpt lat="59.4886770286" lon="31.0800525360"><ele>54.45</ele><time>2026-09-01T00:32:10Z</time></trkpt><trkpt lat="59.4885787927" lon="31.0802929290"><ele>54.45</ele><time>2026-09-01T00:32:24Z</time></trkpt><trkpt lat="59.4885271601" lon="31.0804080963"><ele>54.45</ele><time>2026-09-01T00:32:30Z</time></trkpt><trkpt lat="59.4884373061" lon="31.0806050710"><ele>54.45</ele><time>2026-09-01T00:32:43Z</time></trkpt><trkpt lat="59.4883631263" lon="31.0807960108"><ele>54.45</ele><time>2026-09-01T00:32:56Z</time></trkpt><trkpt lat="59.4882695843" lon="31.0810545925"><ele>54.45</ele><time>2026-09-01T00:33:09Z</time></trkpt><trkpt lat="59.4882006012" lon="31.0811909661"><ele>54.45</ele><time>2026-09-01T00:33:21Z</time></trkpt><trkpt lat="59.4881421793" lon="31.0812938120"><ele>54.93</ele><time>2026-09-01T00:33:31Z</time></trkpt><trkpt lat="59.4881136809" lon="31.0813597776"><ele>54.93</ele><time>2026-09-01T00:33:42Z</time></trkpt><trkpt lat="59.4880747050" lon="31.0814560018"><ele>54.93</ele><time>2026-09-01T00:33:52Z</time></trkpt><trkpt lat="59.4880624674" lon="31.0815429222"><ele>54.93</ele><time>2026-09-01T00:33:56Z</time></trkpt><trkpt lat="59.4880139362" lon="31.0816204548"><ele>54.93</ele><time>2026-09-01T00:34:04Z</time></trkpt><trkpt lat="59.4879796542" lon="31.0817978997"><ele>54.93</ele><time>2026-09-01T00:34:18Z</time></trkpt><trkpt lat="59.4879125990" lon="31.0818660446"><ele>54.93</ele><time>2026-09-01T00:34:30Z</time></trkpt><trkpt lat="59.4878988527" lon="31.0818394739"><ele>54.93</ele><time>2026-09-01T00:34:59Z</time></trkpt><trkpt lat="59.4878944103" lon="31.0818568245"><ele>55.41</ele><time>2026-09-01T00:35:22Z</time></trkpt><trkpt lat="59.4878938235" lon="31.0818838142"><ele>55.41</ele><time>2026-09-01T00:35:54Z</time></trkpt><trkpt lat="59.4878870342" lon="31.0819017515"><ele>55.41</ele><time>2026-09-01T00:35:58Z</time></trkpt><trkpt lat="59.4878101721" lon="31.0821103770"><ele>55.41</ele><time>2026-09-01T00:36:10Z</time></trkpt><trkpt lat="59.4877436198" lon="31.0823182482"><ele>55.41</ele><time>2026-09-01T00:36:23Z</time></trkpt><trkpt lat="59.4876651652" lon="31.0824563820"><ele>55.41</ele><time>2026-09-01T00:36:35Z</time></trkpt><trkpt lat="59.4876078330" lon="31.0826303065"><ele>55.41</ele><time>2026-09-01T00:36:46Z</time></trkpt><trkpt lat="59.4875784963" lon="31.0828077514"><ele>55.41</ele><time>2026-09-01T00:36:58Z</time></trkpt><trkpt lat="59.4875623193" lon="31.0829039756"><ele>55.41</ele><time>2026-09-01T00:37:05Z</time></trkpt><trkpt lat="59.4875398558" lon="31.0831070691"><ele>55.41</ele><time>2026-09-01T00:37:17Z</time></trkpt><trkpt lat="59.4875142910" lon="31.0833106656"><ele>56.37</ele><time>2026-09-01T00:37:28Z</time></trkpt><trkpt lat="59.4874961860" lon="31.0835784674"><ele>56.37</ele><time>2026-09-01T00:37:40Z</time></trkpt><trkpt lat="59.4874710403" lon="31.0837509669"><ele>56.37</ele><time>2026-09-01T00:37:47Z</time></trkpt><trkpt lat="59.4874430448" lon="31.0840095486"><ele>56.37</ele><time>2026-09-01T00:37:59Z</time></trkpt><trkpt lat="59.4874521811" lon="31.0840251390"><ele>56.37</ele><time>2026-09-01T00:38:14Z</time></trkpt><trkpt lat="59.4874401949" lon="31.0840103030"><ele>56.37</ele><time>2026-09-01T00:38:41Z</time></trkpt><trkpt lat="59.4874342438" lon="31.0840103868"><ele>56.37</ele><time>2026-09-01T00:39:15Z</time></trkpt><trkpt lat="59.4874464814" lon="31.0839836486"><ele>56.37</ele><time>2026-09-01T00:39:52Z</time></trkpt><trkpt lat="59.4874413684" lon="31.0842340998"><ele>56.37</ele><time>2026-09-01T00:40:06Z</time></trkpt><trkpt lat="59.4874434639" lon="31.0845312383"><ele>56.37</ele><time>2026-09-01T00:40:18Z</time></trkpt><trkpt lat="59.4874261133" lon="31.0847602319"><ele>56.37</ele><time>2026-09-01T00:40:28Z</time></trkpt><trkpt lat="59.4873893168" lon="31.0850833543"><ele>56.86</ele><time>2026-09-01T00:40:43Z</time></trkpt><trkpt lat="59.4873935077" lon="31.0852332227"><ele>56.86</ele><time>2026-09-01T00:40:53Z</time></trkpt><trkpt lat="59.4873930048" lon="31.0854564328"><ele>56.86</ele><time>2026-09-01T00:41:04Z</time></trkpt><trkpt lat="59.4873834495" lon="31.0856775474"><ele>56.86</ele><time>2026-09-01T00:41:18Z</time></trkpt><trkpt lat="59.4873871375" lon="31.0859100614"><ele>56.86</ele><time>2026-09-01T00:41:31Z</time></trkpt><trkpt lat="59.4873538613" lon="31.0861130711"><ele>56.86</ele><time>2026-09-01T00:41:43Z</time></trkpt><trkpt lat="59.4873493351" lon="31.0862943716"><ele>56.86</ele><time>2026-09-01T00:41:57Z</time></trkpt><trkpt lat="59.4873522688" lon="31.0864664521"><ele>56.86</ele><time>2026-09-01T00:42:08Z</time></trkpt><trkpt lat="59.4873067550" lon="31.0868044104"><ele>56.86</ele><time>2026-09-01T00:42:23Z</time></trkpt><trkpt lat="59.4873063359" lon="31.0868008900"><ele>56.86</ele><time>2026-09-01T00:42:47Z</time></trkpt><trkpt lat="59.4873052463" lon="31.0867976211"><ele>56.86</ele><time>2026-09-01T00:43:20Z</time></trkpt><trkpt lat="59.4873082638" lon="31.0867524426"><ele>56.86</ele><time>2026-09-01T00:43:50Z</time></trkpt><trkpt lat="59.4873094372" lon="31.0867759120"><ele>56.86</ele><time>2026-09-01T00:44:07Z</time></trkpt><trkpt lat="59.4872950204" lon="31.0869755689"><ele>56.86</ele><time>2026-09-01T00:44:17Z</time></trkpt><trkpt lat="59.4872915000" lon="31.0872007906"><ele>56.86</ele><time>2026-09-01T00:44:28Z</time></trkpt><trkpt lat="59.4872759096" lon="31.0873991903"><ele>56.86</ele><time>2026-09-01T00:44:37Z</time></trkpt><trkpt lat="59.4872514345" lon="31.0876920540"><ele>56.86</ele><time>2026-09-01T00:44:52Z</time></trkpt><trkpt lat="59.4872453995" lon="31.0878052935"><ele>56.86</ele><time>2026-09-01T00:44:58Z</time></trkpt><trkpt lat="59.4872510154" lon="31.0879045352"><ele>56.86</ele><time>2026-09-01T00:45:02Z</time></trkpt><trkpt lat="59.4872282166" lon="31.0882928688"><ele>56.86</ele><time>2026-09-01T00:45:19Z</time></trkpt><trkpt lat="59.4872092735" lon="31.0884990636"><ele>56.86</ele><time>2026-09-01T00:45:29Z</time></trkpt><trkpt lat="59.4872059207" lon="31.0886816215"><ele>56.86</ele><time>2026-09-01T00:45:42Z</time></trkpt><trkpt lat="59.4872022327" lon="31.0888943542"><ele>56.86</ele><time>2026-09-01T00:45:52Z</time></trkpt><trkpt lat="59.4871933479" lon="31.0891197436"><ele>56.86</ele><time>2026-09-01T00:46:02Z</time></trkpt><trkpt lat="59.4871755783" lon="31.0892463941"><ele>55.89</ele><time>2026-09-01T00:46:08Z</time></trkpt><trkpt lat="59.4871613290" lon="31.0893556941"><ele>55.89</ele><time>2026-09-01T00:46:15Z</time></trkpt><trkpt lat="59.4871523604" lon="31.0894423630"><ele>55.89</ele><time>2026-09-01T00:46:28Z</time></trkpt><trkpt lat="59.4871511031" lon="31.0894342326"><ele>55.89</ele><time>2026-09-01T00:47:03Z</time></trkpt><trkpt lat="59.4871622510" lon="31.0894629825"><ele>55.89</ele><time>2026-09-01T00:47:27Z</time></trkpt><trkpt lat="59.4871601555" lon="31.0895784851"><ele>55.89</ele><time>2026-09-01T00:47:51Z</time></trkpt><trkpt lat="59.4871575572" lon="31.0898203868"><ele>55.89</ele><time>2026-09-01T00:48:03Z</time></trkpt><trkpt lat="59.4871222693" lon="31.0901092272"><ele>55.89</ele><time>2026-09-01T00:48:17Z</time></trkpt><trkpt lat="59.4871225208" lon="31.0901567526"><ele>55.89</ele><time>2026-09-01T00:48:20Z</time></trkpt><trkpt lat="59.4870915078" lon="31.0903190263"><ele>55.89</ele><time>2026-09-01T00:48:32Z</time></trkpt><trkpt lat="59.4870910887" lon="31.0905461758"><ele>55.89</ele><time>2026-09-01T00:48:46Z</time></trkpt><trkpt lat="59.4870760851" lon="31.0907094553"><ele>55.89</ele><time>2026-09-01T00:49:00Z</time></trkpt><trkpt lat="59.4870760851" lon="31.0908195935"><ele>55.89</ele><time>2026-09-01T00:49:11Z</time></trkpt><trkpt lat="59.4870729838" lon="31.0909833759"><ele>55.89</ele><time>2026-09-01T00:49:24Z</time></trkpt><trkpt lat="59.4870636798" lon="31.0911648441"><ele>55.89</ele><time>2026-09-01T00:49:35Z</time></trkpt><trkpt lat="59.4870500173" lon="31.0913854558"><ele>55.89</ele><time>2026-09-01T00:49:49Z</time></trkpt><trkpt lat="59.4870388694" lon="31.0915976856"><ele>55.89</ele><time>2026-09-01T00:50:00Z</time></trkpt><trkpt lat="59.4870116282" lon="31.0918318760"><ele>55.89</ele><time>2026-09-01T00:50:14Z</time></trkpt><trkpt lat="59.4870058447" lon="31.0918162018"><ele>55.89</ele><time>2026-09-01T00:50:46Z</time></trkpt><trkpt lat="59.4870071020" lon="31.0918012820"><ele>55.41</ele><time>2026-09-01T00:51:11Z</time></trkpt><trkpt lat="59.4870154001" lon="31.0917982645"><ele>55.41</ele><time>2026-09-01T00:51:37Z</time></trkpt><trkpt lat="59.4870265480" lon="31.0919141863"><ele>55.41</ele><time>2026-09-01T00:51:53Z</time></trkpt><trkpt lat="59.4869789388" lon="31.0922024399"><ele>55.41</ele><time>2026-09-01T00:52:07Z</time></trkpt><trkpt lat="59.4869814534" lon="31.0923541524"><ele>55.41</ele><time>2026-09-01T00:52:20Z</time></trkpt><trkpt lat="59.4869664498" lon="31.0927618481"><ele>55.41</ele><time>2026-09-01T00:52:39Z</time></trkpt><trkpt lat="59.4869413041" lon="31.0929801129"><ele>55.41</ele><time>2026-09-01T00:52:54Z</time></trkpt><trkpt lat="59.4869566429" lon="31.0930840485"><ele>54.93</ele><time>2026-09-01T00:53:08Z</time></trkpt><trkpt lat="59.4869123865" lon="31.0933930054"><ele>54.93</ele><time>2026-09-01T00:53:24Z</time></trkpt><trkpt lat="59.4869158231" lon="31.0935818497"><ele>54.93</ele><time>2026-09-01T00:53:39Z</time></trkpt><trkpt lat="59.4869097043" lon="31.0936427023"><ele>54.93</ele><time>2026-09-01T00:54:06Z</time></trkpt><trkpt lat="59.4868970476" lon="31.0937018786"><ele>54.93</ele><time>2026-09-01T00:54:34Z</time></trkpt><trkpt lat="59.4868728239" lon="31.0939551797"><ele>54.93</ele><time>2026-09-01T00:54:54Z</time></trkpt><trkpt lat="59.4868496899" lon="31.0942157730"><ele>54.93</ele><time>2026-09-01T00:55:07Z</time></trkpt><trkpt lat="59.4868390448" lon="31.0944699962"><ele>54.93</ele><time>2026-09-01T00:55:21Z</time></trkpt><trkpt lat="59.4868399668" lon="31.0945430025"><ele>54.93</ele><time>2026-09-01T00:55:37Z</time></trkpt><trkpt lat="59.4868572336" lon="31.0946461000"><ele>54.45</ele><time>2026-09-01T00:55:53Z</time></trkpt><trkpt lat="59.4868362788" lon="31.0950001515"><ele>54.45</ele><time>2026-09-01T00:56:09Z</time></trkpt><trkpt lat="59.4867862388" lon="31.0955087654"><ele>54.45</ele><time>2026-09-01T00:56:23Z</time></trkpt><trkpt lat="59.4867703132" lon="31.0957560316"><ele>54.45</ele><time>2026-09-01T00:56:37Z</time></trkpt><trkpt lat="59.4867621828" lon="31.0959943291"><ele>54.45</ele><time>2026-09-01T00:56:50Z</time></trkpt><trkpt lat="59.4867603388" lon="31.0960716940"><ele>54.45</ele><time>2026-09-01T00:57:08Z</time></trkpt><trkpt lat="59.4867472630" lon="31.0961638112"><ele>54.45</ele><time>2026-09-01T00:57:28Z</time></trkpt><trkpt lat="59.4867399707" lon="31.0961982608"><ele>54.45</ele><time>2026-09-01T00:57:59Z</time></trkpt><trkpt lat="59.4867368694" lon="31.0962011945"><ele>54.45</ele><time>2026-09-01T00:58:22Z</time></trkpt><trkpt lat="59.4867422339" lon="31.0962164495"><ele>54.45</ele><time>2026-09-01T00:58:44Z</time></trkpt><trkpt lat="59.4867445808" lon="31.0962312017"><ele>54.45</ele><time>2026-09-01T00:59:05Z</time></trkpt><trkpt lat="59.4867362827" lon="31.0962229036"><ele>54.45</ele><time>2026-09-01T00:59:23Z</time></trkpt><trkpt lat="59.4867366180" lon="31.0962274298"><ele>54.45</ele><time>2026-09-01T00:59:24Z</time></trkpt><trkpt lat="59.4867328461" lon="31.0962165333"><ele>54.45</ele><time>2026-09-01T00:59:38Z</time></trkpt><trkpt lat="59.4865922816" lon="31.0960962530"><ele>54.45</ele><time>2026-09-01T00:59:52Z</time></trkpt><trkpt lat="59.4864720851" lon="31.0960284434"><ele>54.45</ele><time>2026-09-01T01:00:03Z</time></trkpt><trkpt lat="59.4863780402" lon="31.0959370807"><ele>54.45</ele><time>2026-09-01T01:00:15Z</time></trkpt><trkpt lat="59.4863193668" lon="31.0958434548"><ele>54.45</ele><time>2026-09-01T01:00:27Z</time></trkpt><trkpt lat="59.4862778764" lon="31.0958017129"><ele>54.45</ele><time>2026-09-01T01:00:41Z</time></trkpt><trkpt lat="59.4861711748" lon="31.0956985317"><ele>54.45</ele><time>2026-09-01T01:00:57Z</time></trkpt><trkpt lat="59.4860987552" lon="31.0956526827"><ele>54.45</ele><time>2026-09-01T01:01:10Z</time></trkpt><trkpt lat="59.4859757926" lon="31.0954998806"><ele>54.45</ele><time>2026-09-01T01:01:25Z</time></trkpt><trkpt lat="59.4858972542" lon="31.0954046622"><ele>54.45</ele><time>2026-09-01T01:01:38Z</time></trkpt><trkpt lat="59.4858101662" lon="31.0953032412"><ele>54.45</ele><time>2026-09-01T01:01:55Z</time></trkpt><trkpt lat="59.4857572764" lon="31.0952809453"><ele>54.45</ele><time>2026-09-01T01:02:08Z</time></trkpt><trkpt lat="59.4857193064" lon="31.0952749941"><ele>54.45</ele><time>2026-09-01T01:02:24Z</time></trkpt><trkpt lat="59.4857059792" lon="31.0952424724"><ele>54.45</ele><time>2026-09-01T01:02:39Z</time></trkpt><trkpt lat="59.4857011177" lon="31.0951859783"><ele>54.45</ele><time>2026-09-01T01:02:52Z</time></trkpt><trkpt lat="59.4856978487" lon="31.0950752534"><ele>54.93</ele><time>2026-09-01T01:03:10Z</time></trkpt><trkpt lat="59.4856954180" lon="31.0950190946"><ele>54.93</ele><time>2026-09-01T01:03:42Z</time></trkpt><trkpt lat="59.4857094157" lon="31.0949750058"><ele>54.93</ele><time>2026-09-01T01:04:12Z</time></trkpt><trkpt lat="59.4857114274" lon="31.0949099623"><ele>54.93</ele><time>2026-09-01T01:04:25Z</time></trkpt><trkpt lat="59.4857131876" lon="31.0948318429"><ele>54.93</ele><time>2026-09-01T01:04:43Z</time></trkpt><trkpt lat="59.4857343938" lon="31.0947699007"><ele>55.41</ele><time>2026-09-01T01:05:11Z</time></trkpt><trkpt lat="59.4857425243" lon="31.0947566573"><ele>55.41</ele><time>2026-09-01T01:05:35Z</time></trkpt><trkpt lat="59.4857604615" lon="31.0947022587"><ele>55.41</ele><time>2026-09-01T01:05:56Z</time></trkpt><trkpt lat="59.4857833441" lon="31.0945369676"><ele>55.41</ele><time>2026-09-01T01:06:12Z</time></trkpt><trkpt lat="59.4858552609" lon="31.0944041982"><ele>55.41</ele><time>2026-09-01T01:06:30Z</time></trkpt><trkpt lat="59.4859595317" lon="31.0941550042"><ele>55.41</ele><time>2026-09-01T01:06:47Z</time></trkpt><trkpt lat="59.4859701768" lon="31.0939465463"><ele>55.41</ele><time>2026-09-01T01:07:04Z</time></trkpt><trkpt lat="59.4860321190" lon="31.0937634017"><ele>55.41</ele><time>2026-09-01T01:07:19Z</time></trkpt><trkpt lat="59.4860357232" lon="31.0936913174"><ele>55.41</ele><time>2026-09-01T01:07:37Z</time></trkpt><trkpt lat="59.4860056322" lon="31.0934997909"><ele>55.41</ele><time>2026-09-01T01:07:49Z</time></trkpt><trkpt lat="59.4859497249" lon="31.0934376810"><ele>55.41</ele><time>2026-09-01T01:08:01Z</time></trkpt><trkpt lat="59.4859187119" lon="31.0933469888"><ele>54.93</ele><time>2026-09-01T01:08:20Z</time></trkpt><trkpt lat="59.4859004393" lon="31.0933348350"><ele>54.93</ele><time>2026-09-01T01:08:43Z</time></trkpt><trkpt lat="59.4858612120" lon="31.0932886507"><ele>54.93</ele><time>2026-09-01T01:09:11Z</time></trkpt><trkpt lat="59.4858618826" lon="31.0932870582"><ele>54.93</ele><time>2026-09-01T01:09:32Z</time></trkpt><trkpt lat="59.4858667441" lon="31.0932970326"><ele>54.45</ele><time>2026-09-01T01:09:59Z</time></trkpt><trkpt lat="59.4858590327" lon="31.0932922550"><ele>54.45</ele><time>2026-09-01T01:10:18Z</time></trkpt><trkpt lat="59.4858540036" lon="31.0932821967"><ele>54.45</ele><time>2026-09-01T01:10:47Z</time></trkpt><trkpt lat="59.4858512376" lon="31.0932752397"><ele>54.45</ele><time>2026-09-01T01:11:14Z</time></trkpt><trkpt lat="59.4858498964" lon="31.0932755750"><ele>53.97</ele><time>2026-09-01T01:11:40Z</time></trkpt><trkpt lat="59.4858530816" lon="31.0932764132"><ele>53.97</ele><time>2026-09-01T01:12:08Z</time></trkpt><trkpt lat="59.4858522434" lon="31.0932731442"><ele>53.97</ele><time>2026-09-01T01:12:28Z</time></trkpt><trkpt lat="59.4858478848" lon="31.0932370182"><ele>53.49</ele><time>2026-09-01T01:12:43Z</time></trkpt><trkpt lat="59.4857726991" lon="31.0930133052"><ele>53.49</ele><time>2026-09-01T01:12:55Z</time></trkpt><trkpt lat="59.4857634790" lon="31.0929013230"><ele>53.49</ele><time>2026-09-01T01:13:12Z</time></trkpt><trkpt lat="59.4856597111" lon="31.0925448406"><ele>53.49</ele><time>2026-09-01T01:13:34Z</time></trkpt><trkpt lat="59.4855986908" lon="31.0922407452"><ele>53.49</ele><time>2026-09-01T01:13:53Z</time></trkpt><trkpt lat="59.4856180530" lon="31.0920737777"><ele>53.49</ele><time>2026-09-01T01:14:08Z</time></trkpt><trkpt lat="59.4856287818" lon="31.0919419304"><ele>53.49</ele><time>2026-09-01T01:14:21Z</time></trkpt><trkpt lat="59.4855919853" lon="31.0918537527"><ele>53.49</ele><time>2026-09-01T01:14:34Z</time></trkpt><trkpt lat="59.4855870400" lon="31.0917462129"><ele>53.49</ele><time>2026-09-01T01:14:49Z</time></trkpt><trkpt lat="59.4855859503" lon="31.0915775690"><ele>53.49</ele><time>2026-09-01T01:15:02Z</time></trkpt><trkpt lat="59.4856374990" lon="31.0912884772"><ele>53.49</ele><time>2026-09-01T01:15:18Z</time></trkpt><trkpt lat="59.4856569450" lon="31.0910946038"><ele>53.49</ele><time>2026-09-01T01:15:32Z</time></trkpt><trkpt lat="59.4857330527" lon="31.0908893310"><ele>53.49</ele><time>2026-09-01T01:15:48Z</time></trkpt><trkpt lat="59.4857742079" lon="31.0908482596"><ele>53.49</ele><time>2026-09-01T01:16:01Z</time></trkpt><trkpt lat="59.4857825898" lon="31.0908105411"><ele>53.49</ele><time>2026-09-01T01:16:29Z</time></trkpt><trkpt lat="59.4857856911" lon="31.0908344295"><ele>53.49</ele><time>2026-09-01T01:16:55Z</time></trkpt><trkpt lat="59.4857944921" lon="31.0908467509"><ele>53.49</ele><time>2026-09-01T01:17:25Z</time></trkpt><trkpt lat="59.4857932348" lon="31.0908354353"><ele>53.49</ele><time>2026-09-01T01:17:48Z</time></trkpt><trkpt lat="59.4858034607" lon="31.0907669552"><ele>53.49</ele><time>2026-09-01T01:18:02Z</time></trkpt><trkpt lat="59.4858140219" lon="31.0906627681"><ele>53.49</ele><time>2026-09-01T01:18:17Z</time></trkpt><trkpt lat="59.4859077316" lon="31.0905579943"><ele>53.49</ele><time>2026-09-01T01:18:33Z</time></trkpt><trkpt lat="59.4859409239" lon="31.0904186871"><ele>53.49</ele><time>2026-09-01T01:18:49Z</time></trkpt><trkpt lat="59.4859930594" lon="31.0902430862"><ele>53.49</ele><time>2026-09-01T01:19:02Z</time></trkpt><trkpt lat="59.4859952386" lon="31.0902321897"><ele>53.49</ele><time>2026-09-01T01:19:04Z</time></trkpt><trkpt lat="59.4860416744" lon="31.0899926350"><ele>53.49</ele><time>2026-09-01T01:19:20Z</time></trkpt><trkpt lat="59.4860598631" lon="31.0897200555"><ele>53.49</ele><time>2026-09-01T01:19:35Z</time></trkpt><trkpt lat="59.4860523194" lon="31.0895528365"><ele>53.49</ele><time>2026-09-01T01:19:46Z</time></trkpt><trkpt lat="59.4860681612" lon="31.0893810075"><ele>53.49</ele><time>2026-09-01T01:20:00Z</time></trkpt><trkpt lat="59.4860664010" lon="31.0891969409"><ele>53.97</ele><time>2026-09-01T01:20:14Z</time></trkpt><trkpt lat="59.4860430155" lon="31.0890317336"><ele>53.97</ele><time>2026-09-01T01:20:25Z</time></trkpt><trkpt lat="59.4860201329" lon="31.0888998862"><ele>53.97</ele><time>2026-09-01T01:20:39Z</time></trkpt><trkpt lat="59.4859843422" lon="31.0887809470"><ele>53.97</ele><time>2026-09-01T01:20:50Z</time></trkpt><trkpt lat="59.4859273452" lon="31.0884978063"><ele>53.97</ele><time>2026-09-01T01:21:03Z</time></trkpt><trkpt lat="59.4859223999" lon="31.0884678829"><ele>53.97</ele><time>2026-09-01T01:21:05Z</time></trkpt><trkpt lat="59.4858695939" lon="31.0883292463"><ele>53.97</ele><time>2026-09-01T01:21:16Z</time></trkpt><trkpt lat="59.4858601224" lon="31.0882672202"><ele>53.97</ele><time>2026-09-01T01:21:32Z</time></trkpt><trkpt lat="59.4858452864" lon="31.0882214550"><ele>53.97</ele><time>2026-09-01T01:21:52Z</time></trkpt><trkpt lat="59.4858431909" lon="31.0881600995"><ele>53.97</ele><time>2026-09-01T01:22:15Z</time></trkpt><trkpt lat="59.4858252537" lon="31.0881294217"><ele>53.97</ele><time>2026-09-01T01:22:48Z</time></trkpt><trkpt lat="59.4858281873" lon="31.0881208722"><ele>50.13</ele><time>2026-09-01T01:23:06Z</time></trkpt><trkpt lat="59.4858294446" lon="31.0881186090"><ele>49.65</ele><time>2026-09-01T01:23:28Z</time></trkpt><trkpt lat="59.4858301152" lon="31.0881185252"><ele>53.01</ele><time>2026-09-01T01:23:38Z</time></trkpt><trkpt lat="59.4858294446" lon="31.0881192796"><ele>56.37</ele><time>2026-09-01T01:23:44Z</time></trkpt><trkpt lat="59.4858261757" lon="31.0881227162"><ele>54.93</ele><time>2026-09-01T01:24:12Z</time></trkpt><trkpt lat="59.4858270977" lon="31.0881034378"><ele>53.97</ele><time>2026-09-01T01:24:39Z</time></trkpt><trkpt lat="59.4858366530" lon="31.0881038569"><ele>53.01</ele><time>2026-09-01T01:25:12Z</time></trkpt><trkpt lat="59.4858382456" lon="31.0880980734"><ele>53.49</ele><time>2026-09-01T01:25:47Z</time></trkpt><trkpt lat="59.4858336356" lon="31.0881082155"><ele>53.49</ele><time>2026-09-01T01:26:15Z</time></trkpt><trkpt lat="59.4858349767" lon="31.0881179385"><ele>54.45</ele><time>2026-09-01T01:26:42Z</time></trkpt><trkpt lat="59.4858372398" lon="31.0881098919"><ele>54.45</ele><time>2026-09-01T01:27:11Z</time></trkpt><trkpt lat="59.4858390000" lon="31.0881082155"><ele>54.93</ele><time>2026-09-01T01:27:40Z</time></trkpt><trkpt lat="59.4858421851" lon="31.0881191120"><ele>54.93</ele><time>2026-09-01T01:28:13Z</time></trkpt><trkpt lat="59.4858410116" lon="31.0881222971"><ele>54.93</ele><time>2026-09-01T01:28:38Z</time></trkpt><trkpt lat="59.4858389162" lon="31.0881181899"><ele>53.97</ele><time>2026-09-01T01:29:02Z</time></trkpt><trkpt lat="59.4858394191" lon="31.0881109815"><ele>53.97</ele><time>2026-09-01T01:29:36Z</time></trkpt><trkpt lat="59.4858381618" lon="31.0881041922"><ele>53.97</ele><time>2026-09-01T01:30:07Z</time></trkpt><trkpt lat="59.4858398382" lon="31.0881043598"><ele>53.97</ele><time>2026-09-01T01:30:41Z</time></trkpt><trkpt lat="59.4858400058" lon="31.0881072097"><ele>53.97</ele><time>2026-09-01T01:31:05Z</time></trkpt><trkpt lat="59.4858488906" lon="31.0880894400"><ele>53.97</ele><time>2026-09-01T01:31:34Z</time></trkpt><trkpt lat="59.4858286064" lon="31.0880179424"><ele>53.97</ele><time>2026-09-01T01:31:46Z</time></trkpt><trkpt lat="59.4858180452" lon="31.0879373923"><ele>53.97</ele><time>2026-09-01T01:31:58Z</time></trkpt><trkpt lat="59.4858165365" lon="31.0877863504"><ele>53.97</ele><time>2026-09-01T01:32:11Z</time></trkpt><trkpt lat="59.4858006109" lon="31.0876770504"><ele>53.97</ele><time>2026-09-01T01:32:15Z</time></trkpt><trkpt lat="59.4857570250" lon="31.0874405969"><ele>54.45</ele><time>2026-09-01T01:32:28Z</time></trkpt><trkpt lat="59.4857369922" lon="31.0873230826"><ele>53.97</ele><time>2026-09-01T01:32:38Z</time></trkpt><trkpt lat="59.4856960885" lon="31.0870389361"><ele>53.97</ele><time>2026-09-01T01:32:54Z</time></trkpt><trkpt lat="59.4856762234" lon="31.0868459847"><ele>53.97</ele><time>2026-09-01T01:33:07Z</time></trkpt><trkpt lat="59.4856327213" lon="31.0866600741"><ele>53.97</ele><time>2026-09-01T01:33:19Z</time></trkpt><trkpt lat="59.4856102578" lon="31.0865503550"><ele>53.97</ele><time>2026-09-01T01:33:30Z</time></trkpt><trkpt lat="59.4856134430" lon="31.0863314196"><ele>53.97</ele><time>2026-09-01T01:33:43Z</time></trkpt><trkpt lat="59.4856495690" lon="31.0861434974"><ele>53.97</ele><time>2026-09-01T01:33:56Z</time></trkpt><trkpt lat="59.4857034646" lon="31.0859435052"><ele>53.97</ele><time>2026-09-01T01:34:11Z</time></trkpt><trkpt lat="59.4857512414" lon="31.0858373065"><ele>53.97</ele><time>2026-09-01T01:34:23Z</time></trkpt><trkpt lat="59.4857913908" lon="31.0856714286"><ele>53.97</ele><time>2026-09-01T01:34:37Z</time></trkpt><trkpt lat="59.4858370721" lon="31.0855577700"><ele>53.97</ele><time>2026-09-01T01:34:50Z</time></trkpt><trkpt lat="59.4859012775" lon="31.0854457878"><ele>53.97</ele><time>2026-09-01T01:35:04Z</time></trkpt><trkpt lat="59.4859635551" lon="31.0853473004"><ele>53.97</ele><time>2026-09-01T01:35:16Z</time></trkpt><trkpt lat="59.4859788101" lon="31.0852825921"><ele>53.97</ele><time>2026-09-01T01:35:29Z</time></trkpt><trkpt lat="59.4859990943" lon="31.0852252599"><ele>54.93</ele><time>2026-09-01T01:35:55Z</time></trkpt><trkpt lat="59.4860014413" lon="31.0852291994"><ele>54.93</ele><time>2026-09-01T01:36:20Z</time></trkpt><trkpt lat="59.4860069733" lon="31.0852506571"><ele>54.93</ele><time>2026-09-01T01:36:46Z</time></trkpt><trkpt lat="59.4860072248" lon="31.0852352343"><ele>54.93</ele><time>2026-09-01T01:36:59Z</time></trkpt><trkpt lat="59.4860358909" lon="31.0851448774"><ele>54.93</ele><time>2026-09-01T01:37:11Z</time></trkpt><trkpt lat="59.4861212187" lon="31.0849914886"><ele>54.93</ele><time>2026-09-01T01:37:26Z</time></trkpt><trkpt lat="59.4861978292" lon="31.0849018861"><ele>54.93</ele><time>2026-09-01T01:37:39Z</time></trkpt><trkpt lat="59.4862596039" lon="31.0847901553"><ele>54.93</ele><time>2026-09-01T01:37:54Z</time></trkpt><trkpt lat="59.4863016810" lon="31.0846020654"><ele>54.93</ele><time>2026-09-01T01:38:07Z</time></trkpt><trkpt lat="59.4863387290" lon="31.0843941104"><ele>54.45</ele><time>2026-09-01T01:38:19Z</time></trkpt><trkpt lat="59.4863828178" lon="31.0843347665"><ele>54.93</ele><time>2026-09-01T01:38:33Z</time></trkpt><trkpt lat="59.4864200335" lon="31.0842866544"><ele>54.93</ele><time>2026-09-01T01:38:46Z</time></trkpt><trkpt lat="59.4864626974" lon="31.0841423180"><ele>54.93</ele><time>2026-09-01T01:38:58Z</time></trkpt><trkpt lat="59.4864770304" lon="31.0840362869"><ele>54.45</ele><time>2026-09-01T01:39:07Z</time></trkpt><trkpt lat="59.4864729233" lon="31.0838498734"><ele>54.45</ele><time>2026-09-01T01:39:18Z</time></trkpt><trkpt lat="59.4864816405" lon="31.0837610252"><ele>54.45</ele><time>2026-09-01T01:39:28Z</time></trkpt><trkpt lat="59.4864428323" lon="31.0836643819"><ele>54.45</ele><time>2026-09-01T01:39:35Z</time></trkpt><trkpt lat="59.4863729272" lon="31.0835577641"><ele>54.45</ele><time>2026-09-01T01:39:46Z</time></trkpt><trkpt lat="59.4863413274" lon="31.0834808182"><ele>54.45</ele><time>2026-09-01T01:39:54Z</time></trkpt><trkpt lat="59.4863327779" lon="31.0834335443"><ele>54.45</ele><time>2026-09-01T01:39:57Z</time></trkpt><trkpt lat="59.4862634595" lon="31.0832805745"><ele>54.45</ele><time>2026-09-01T01:40:08Z</time></trkpt><trkpt lat="59.4862534013" lon="31.0831191391"><ele>54.45</ele><time>2026-09-01T01:40:21Z</time></trkpt><trkpt lat="59.4862687401" lon="31.0829758924"><ele>54.45</ele><time>2026-09-01T01:40:33Z</time></trkpt><trkpt lat="59.4862571731" lon="31.0828432068"><ele>54.45</ele><time>2026-09-01T01:40:45Z</time></trkpt><trkpt lat="59.4862553291" lon="31.0828371719"><ele>54.45</ele><time>2026-09-01T01:41:07Z</time></trkpt><trkpt lat="59.4862451032" lon="31.0828315560"><ele>54.45</ele><time>2026-09-01T01:41:40Z</time></trkpt><trkpt lat="59.4862524793" lon="31.0828164686"><ele>54.45</ele><time>2026-09-01T01:41:54Z</time></trkpt><trkpt lat="59.4862549100" lon="31.0828059074"><ele>54.93</ele><time>2026-09-01T01:42:25Z</time></trkpt><trkpt lat="59.4862482883" lon="31.0828224197"><ele>54.93</ele><time>2026-09-01T01:42:52Z</time></trkpt><trkpt lat="59.4862466957" lon="31.0828304663"><ele>54.93</ele><time>2026-09-01T01:43:20Z</time></trkpt><trkpt lat="59.4862451870" lon="31.0828220844"><ele>54.93</ele><time>2026-09-01T01:43:47Z</time></trkpt><trkpt lat="59.4862447679" lon="31.0828263592"><ele>54.93</ele><time>2026-09-01T01:44:01Z</time></trkpt><trkpt lat="59.4862338714" lon="31.0828155465"><ele>54.93</ele><time>2026-09-01T01:44:17Z</time></trkpt><trkpt lat="59.4862362184" lon="31.0828214139"><ele>54.93</ele><time>2026-09-01T01:44:33Z</time></trkpt><trkpt lat="59.4862125814" lon="31.0827976093"><ele>54.93</ele><time>2026-09-01T01:44:46Z</time></trkpt><trkpt lat="59.4862053730" lon="31.0827909037"><ele>54.93</ele><time>2026-09-01T01:44:47Z</time></trkpt><trkpt lat="59.4861446042" lon="31.0827224236"><ele>54.93</ele><time>2026-09-01T01:45:02Z</time></trkpt><trkpt lat="59.4860845059" lon="31.0826517642"><ele>54.93</ele><time>2026-09-01T01:45:10Z</time></trkpt><trkpt lat="59.4859764632" lon="31.0825912468"><ele>54.93</ele><time>2026-09-01T01:45:23Z</time></trkpt><trkpt lat="59.4858514052" lon="31.0825804342"><ele>54.93</ele><time>2026-09-01T01:45:38Z</time></trkpt><trkpt lat="59.4858446158" lon="31.0825803503"><ele>54.93</ele><time>2026-09-01T01:45:39Z</time></trkpt><trkpt lat="59.4857643172" lon="31.0825077631"><ele>54.93</ele><time>2026-09-01T01:45:51Z</time></trkpt><trkpt lat="59.4856604654" lon="31.0825008061"><ele>54.93</ele><time>2026-09-01T01:46:04Z</time></trkpt><trkpt lat="59.4855530933" lon="31.0824203398"><ele>54.93</ele><time>2026-09-01T01:46:17Z</time></trkpt><trkpt lat="59.4855340663" lon="31.0824184958"><ele>54.93</ele><time>2026-09-01T01:46:19Z</time></trkpt><trkpt lat="59.4854967669" lon="31.0823950265"><ele>54.45</ele><time>2026-09-01T01:46:23Z</time></trkpt><trkpt lat="59.4853784982" lon="31.0823806934"><ele>54.45</ele><time>2026-09-01T01:46:37Z</time></trkpt><trkpt lat="59.4853443839" lon="31.0823542904"><ele>54.45</ele><time>2026-09-01T01:46:43Z</time></trkpt><trkpt lat="59.4852417056" lon="31.0823632590"><ele>54.45</ele><time>2026-09-01T01:46:55Z</time></trkpt><trkpt lat="59.4852039032" lon="31.0823704675"><ele>54.45</ele><time>2026-09-01T01:47:07Z</time></trkpt><trkpt lat="59.4850992970" lon="31.0824148078"><ele>54.45</ele><time>2026-09-01T01:47:19Z</time></trkpt><trkpt lat="59.4850587286" lon="31.0825074278"><ele>54.45</ele><time>2026-09-01T01:47:30Z</time></trkpt><trkpt lat="59.4850334991" lon="31.0825596470"><ele>54.45</ele><time>2026-09-01T01:47:34Z</time></trkpt><trkpt lat="59.4849449024" lon="31.0826955177"><ele>54.45</ele><time>2026-09-01T01:47:45Z</time></trkpt><trkpt lat="59.4848475885" lon="31.0828555282"><ele>54.45</ele><time>2026-09-01T01:47:59Z</time></trkpt><trkpt lat="59.4848236162" lon="31.0829281155"><ele>54.45</ele><time>2026-09-01T01:48:11Z</time></trkpt><trkpt lat="59.4847481791" lon="31.0830763076"><ele>54.45</ele><time>2026-09-01T01:48:24Z</time></trkpt><trkpt lat="59.4846680481" lon="31.0832796525"><ele>54.45</ele><time>2026-09-01T01:48:39Z</time></trkpt><trkpt lat="59.4846111350" lon="31.0834974982"><ele>54.45</ele><time>2026-09-01T01:48:55Z</time></trkpt><trkpt lat="59.4845829718" lon="31.0835338756"><ele>54.45</ele><time>2026-09-01T01:49:06Z</time></trkpt><trkpt lat="59.4845702313" lon="31.0835373122"><ele>54.45</ele><time>2026-09-01T01:49:29Z</time></trkpt><trkpt lat="59.4844912738" lon="31.0836591851"><ele>54.45</ele><time>2026-09-01T01:49:42Z</time></trkpt><trkpt lat="59.4843913615" lon="31.0837453511"><ele>54.45</ele><time>2026-09-01T01:49:55Z</time></trkpt><trkpt lat="59.4843079615" lon="31.0838604346"><ele>54.45</ele><time>2026-09-01T01:50:06Z</time></trkpt><trkpt lat="59.4842263218" lon="31.0840018373"><ele>54.45</ele><time>2026-09-01T01:50:20Z</time></trkpt><trkpt lat="59.4841508847" lon="31.0841615964"><ele>54.45</ele><time>2026-09-01T01:50:33Z</time></trkpt><trkpt lat="59.4841327798" lon="31.0843048431"><ele>54.45</ele><time>2026-09-01T01:50:45Z</time></trkpt><trkpt lat="59.4840741064" lon="31.0844911728"><ele>54.45</ele><time>2026-09-01T01:50:59Z</time></trkpt><trkpt lat="59.4840846676" lon="31.0846020654"><ele>54.45</ele><time>2026-09-01T01:51:13Z</time></trkpt><trkpt lat="59.4841081370" lon="31.0846712999"><ele>54.45</ele><time>2026-09-01T01:51:26Z</time></trkpt><trkpt lat="59.4841151778" lon="31.0847832821"><ele>54.45</ele><time>2026-09-01T01:51:38Z</time></trkpt><trkpt lat="59.4841399882" lon="31.0848225094"><ele>54.45</ele><time>2026-09-01T01:51:54Z</time></trkpt><trkpt lat="59.4841515552" lon="31.0848314781"><ele>54.45</ele><time>2026-09-01T01:52:13Z</time></trkpt><trkpt lat="59.4841552433" lon="31.0848443862"><ele>54.45</ele><time>2026-09-01T01:52:41Z</time></trkpt><trkpt lat="59.4841724262" lon="31.0848558694"><ele>54.45</ele><time>2026-09-01T01:53:09Z</time></trkpt><trkpt lat="59.4841741864" lon="31.0848571267"><ele>54.93</ele><time>2026-09-01T01:53:38Z</time></trkpt><trkpt lat="59.4841721747" lon="31.0848553665"><ele>54.93</ele><time>2026-09-01T01:53:53Z</time></trkpt><trkpt lat="59.4841730967" lon="31.0848591384"><ele>54.93</ele><time>2026-09-01T01:54:13Z</time></trkpt><trkpt lat="59.4841736834" lon="31.0848575458"><ele>54.93</ele><time>2026-09-01T01:54:34Z</time></trkpt><trkpt lat="59.4841712527" lon="31.0848458949"><ele>53.97</ele><time>2026-09-01T01:54:57Z</time></trkpt><trkpt lat="59.4841735158" lon="31.0848579649"><ele>53.97</ele><time>2026-09-01T01:55:19Z</time></trkpt><trkpt lat="59.4841119926" lon="31.0849428736"><ele>53.97</ele><time>2026-09-01T01:55:39Z</time></trkpt><trkpt lat="59.4841002580" lon="31.0849802569"><ele>53.97</ele><time>2026-09-01T01:56:00Z</time></trkpt><trkpt lat="59.4841896091" lon="31.0848608986"><ele>53.97</ele><time>2026-09-01T01:56:19Z</time></trkpt><trkpt lat="59.4841939677" lon="31.0848551989"><ele>53.97</ele><time>2026-09-01T01:56:38Z</time></trkpt><trkpt lat="59.4841922913" lon="31.0848513432"><ele>53.97</ele><time>2026-09-01T01:57:02Z</time></trkpt><trkpt lat="59.4841891062" lon="31.0848463979"><ele>53.97</ele><time>2026-09-01T01:57:24Z</time></trkpt><trkpt lat="59.4841676485" lon="31.0847979505"><ele>53.97</ele><time>2026-09-01T01:57:56Z</time></trkpt><trkpt lat="59.4841665588" lon="31.0848078411"><ele>54.45</ele><time>2026-09-01T01:58:19Z</time></trkpt><trkpt lat="59.4841653854" lon="31.0848205816"><ele>54.45</ele><time>2026-09-01T01:58:36Z</time></trkpt><trkpt lat="59.4841710012" lon="31.0848201625"><ele>54.45</ele><time>2026-09-01T01:59:01Z</time></trkpt><trkpt lat="59.4841776229" lon="31.0847697873"><ele>54.45</ele><time>2026-09-01T01:59:21Z</time></trkpt><trkpt lat="59.4841777906" lon="31.0847600643"><ele>54.45</ele><time>2026-09-01T01:59:32Z</time></trkpt><trkpt lat="59.4841902796" lon="31.0847609863"><ele>54.45</ele><time>2026-09-01T01:59:57Z</time></trkpt><trkpt lat="59.4842137489" lon="31.0846937634"><ele>54.45</ele><time>2026-09-01T02:00:19Z</time></trkpt><trkpt lat="59.4842303451" lon="31.0844634287"><ele>54.45</ele><time>2026-09-01T02:00:33Z</time></trkpt><trkpt lat="59.4842694886" lon="31.0842565633"><ele>54.45</ele><time>2026-09-01T02:00:49Z</time></trkpt><trkpt lat="59.4843457639" lon="31.0839836486"><ele>54.45</ele><time>2026-09-01T02:01:05Z</time></trkpt><trkpt lat="59.4843585882" lon="31.0838100594"><ele>54.45</ele><time>2026-09-01T02:01:16Z</time></trkpt><trkpt lat="59.4843873382" lon="31.0836722609"><ele>54.45</ele><time>2026-09-01T02:01:27Z</time></trkpt><trkpt lat="59.4844178483" lon="31.0835530702"><ele>54.45</ele><time>2026-09-01T02:01:38Z</time></trkpt><trkpt lat="59.4844698161" lon="31.0833840910"><ele>54.45</ele><time>2026-09-01T02:01:51Z</time></trkpt><trkpt lat="59.4845071156" lon="31.0832612123"><ele>54.45</ele><time>2026-09-01T02:02:01Z</time></trkpt><trkpt lat="59.4845193531" lon="31.0830706917"><ele>54.45</ele><time>2026-09-01T02:02:13Z</time></trkpt><trkpt lat="59.4845695607" lon="31.0828768183"><ele>54.45</ele><time>2026-09-01T02:02:26Z</time></trkpt><trkpt lat="59.4845872466" lon="31.0827428754"><ele>54.45</ele><time>2026-09-01T02:02:37Z</time></trkpt><trkpt lat="59.4845984783" lon="31.0825899057"><ele>54.45</ele><time>2026-09-01T02:02:49Z</time></trkpt><trkpt lat="59.4845951255" lon="31.0824547056"><ele>54.45</ele><time>2026-09-01T02:02:59Z</time></trkpt><trkpt lat="59.4845957961" lon="31.0823330004"><ele>54.45</ele><time>2026-09-01T02:03:11Z</time></trkpt><trkpt lat="59.4846031722" lon="31.0821834672"><ele>54.45</ele><time>2026-09-01T02:03:21Z</time></trkpt><trkpt lat="59.4846030045" lon="31.0820199363"><ele>54.45</ele><time>2026-09-01T02:03:32Z</time></trkpt><trkpt lat="59.4846012443" lon="31.0818420723"><ele>54.45</ele><time>2026-09-01T02:03:40Z</time></trkpt><trkpt lat="59.4846076146" lon="31.0815952253"><ele>54.45</ele><time>2026-09-01T02:03:52Z</time></trkpt><trkpt lat="59.4847034197" lon="31.0814485420"><ele>54.45</ele><time>2026-09-01T02:04:06Z</time></trkpt><trkpt lat="59.4847508613" lon="31.0813047923"><ele>54.45</ele><time>2026-09-01T02:04:21Z</time></trkpt><trkpt lat="59.4847599976" lon="31.0811685026"><ele>54.45</ele><time>2026-09-01T02:04:34Z</time></trkpt><trkpt lat="59.4848009013" lon="31.0809884593"><ele>54.45</ele><time>2026-09-01T02:04:45Z</time></trkpt><trkpt lat="59.4848228619" lon="31.0808083322"><ele>54.45</ele><time>2026-09-01T02:04:57Z</time></trkpt><trkpt lat="59.4848455768" lon="31.0806250200"><ele>54.45</ele><time>2026-09-01T02:05:09Z</time></trkpt><trkpt lat="59.4849122129" lon="31.0805283766"><ele>53.97</ele><time>2026-09-01T02:05:22Z</time></trkpt><trkpt lat="59.4849868119" lon="31.0804719664"><ele>53.97</ele><time>2026-09-01T02:05:35Z</time></trkpt><trkpt lat="59.4850588124" lon="31.0805112775"><ele>53.97</ele><time>2026-09-01T02:05:46Z</time></trkpt><trkpt lat="59.4851554558" lon="31.0805582162"><ele>53.97</ele><time>2026-09-01T02:05:56Z</time></trkpt><trkpt lat="59.4852464832" lon="31.0805531871"><ele>53.97</ele><time>2026-09-01T02:06:08Z</time></trkpt><trkpt lat="59.4853598904" lon="31.0805432126"><ele>53.97</ele><time>2026-09-01T02:06:19Z</time></trkpt><trkpt lat="59.4854393508" lon="31.0805987846"><ele>53.97</ele><time>2026-09-01T02:06:30Z</time></trkpt><trkpt lat="59.4855114352" lon="31.0806561168"><ele>55.41</ele><time>2026-09-01T02:06:38Z</time></trkpt><trkpt lat="59.4855887163" lon="31.0806633253"><ele>55.41</ele><time>2026-09-01T02:06:48Z</time></trkpt><trkpt lat="59.4856695179" lon="31.0806660913"><ele>55.41</ele><time>2026-09-01T02:06:59Z</time></trkpt><trkpt lat="59.4857688434" lon="31.0806649178"><ele>55.41</ele><time>2026-09-01T02:07:11Z</time></trkpt><trkpt lat="59.4858455379" lon="31.0807254352"><ele>55.41</ele><time>2026-09-01T02:07:22Z</time></trkpt><trkpt lat="59.4859028701" lon="31.0807687696"><ele>55.41</ele><time>2026-09-01T02:07:39Z</time></trkpt><trkpt lat="59.4859883655" lon="31.0808400996"><ele>55.41</ele><time>2026-09-01T02:07:50Z</time></trkpt><trkpt lat="59.4860051293" lon="31.0808499064"><ele>55.41</ele><time>2026-09-01T02:07:52Z</time></trkpt><trkpt lat="59.4861157704" lon="31.0808916483"><ele>55.41</ele><time>2026-09-01T02:08:05Z</time></trkpt><trkpt lat="59.4861469511" lon="31.0808577016"><ele>55.41</ele><time>2026-09-01T02:08:10Z</time></trkpt><trkpt lat="59.4862799719" lon="31.0807779897"><ele>55.41</ele><time>2026-09-01T02:08:24Z</time></trkpt><trkpt lat="59.4862888567" lon="31.0807709489"><ele>55.41</ele><time>2026-09-01T02:08:25Z</time></trkpt><trkpt lat="59.4863777049" lon="31.0806363355"><ele>55.41</ele><time>2026-09-01T02:08:39Z</time></trkpt><trkpt lat="59.4864450116" lon="31.0804717150"><ele>55.41</ele><time>2026-09-01T02:08:53Z</time></trkpt><trkpt lat="59.4864731748" lon="31.0804132093"><ele>55.41</ele><time>2026-09-01T02:08:58Z</time></trkpt><trkpt lat="59.4864815567" lon="31.0803148057"><ele>55.41</ele><time>2026-09-01T02:09:10Z</time></trkpt><trkpt lat="59.4864903577" lon="31.0803055856"><ele>55.41</ele><time>2026-09-01T02:09:39Z</time></trkpt><trkpt lat="59.4864823110" lon="31.0802989639"><ele>54.93</ele><time>2026-09-01T02:09:56Z</time></trkpt><trkpt lat="59.4864618592" lon="31.0802488402"><ele>54.93</ele><time>2026-09-01T02:10:00Z</time></trkpt><trkpt lat="59.4864098076" lon="31.0800896678"><ele>54.93</ele><time>2026-09-01T02:10:12Z</time></trkpt><trkpt lat="59.4863994140" lon="31.0800259653"><ele>54.93</ele><time>2026-09-01T02:10:16Z</time></trkpt><trkpt lat="59.4863839913" lon="31.0799951199"><ele>54.93</ele><time>2026-09-01T02:10:18Z</time></trkpt><trkpt lat="59.4863549899" lon="31.0798334330"><ele>54.93</ele><time>2026-09-01T02:10:30Z</time></trkpt><trkpt lat="59.4863499608" lon="31.0797866620"><ele>54.93</ele><time>2026-09-01T02:10:36Z</time></trkpt><trkpt lat="59.4863383099" lon="31.0797465965"><ele>54.93</ele><time>2026-09-01T02:10:38Z</time></trkpt><trkpt lat="59.4863310177" lon="31.0796681419"><ele>54.93</ele><time>2026-09-01T02:10:42Z</time></trkpt><trkpt lat="59.4863015134" lon="31.0794368014"><ele>54.93</ele><time>2026-09-01T02:10:53Z</time></trkpt><trkpt lat="59.4862572569" lon="31.0792754497"><ele>54.93</ele><time>2026-09-01T02:11:03Z</time></trkpt><trkpt lat="59.4862447679" lon="31.0792128369"><ele>54.93</ele><time>2026-09-01T02:11:06Z</time></trkpt><trkpt lat="59.4862254057" lon="31.0791714303"><ele>54.93</ele><time>2026-09-01T02:11:08Z</time></trkpt><trkpt lat="59.4861798920" lon="31.0791038722"><ele>54.93</ele><time>2026-09-01T02:11:18Z</time></trkpt><trkpt lat="59.4861309417" lon="31.0789773893"><ele>54.93</ele><time>2026-09-01T02:11:30Z</time></trkpt><trkpt lat="59.4860418420" lon="31.0788725317"><ele>54.93</ele><time>2026-09-01T02:11:44Z</time></trkpt><trkpt lat="59.4859472942" lon="31.0787941609"><ele>54.93</ele><time>2026-09-01T02:11:56Z</time></trkpt><trkpt lat="59.4858941529" lon="31.0787360743"><ele>54.93</ele><time>2026-09-01T02:12:06Z</time></trkpt><trkpt lat="59.4858136866" lon="31.0786672588"><ele>54.93</ele><time>2026-09-01T02:12:17Z</time></trkpt><trkpt lat="59.4857227430" lon="31.0784963518"><ele>53.97</ele><time>2026-09-01T02:12:30Z</time></trkpt><trkpt lat="59.4856251776" lon="31.0783284623"><ele>53.97</ele><time>2026-09-01T02:12:45Z</time></trkpt><trkpt lat="59.4855613913" lon="31.0782788415"><ele>53.97</ele><time>2026-09-01T02:12:52Z</time></trkpt><trkpt lat="59.4854680169" lon="31.0782384407"><ele>53.97</ele><time>2026-09-01T02:13:05Z</time></trkpt><trkpt lat="59.4854587130" lon="31.0782137141"><ele>53.49</ele><time>2026-09-01T02:13:24Z</time></trkpt><trkpt lat="59.4853955973" lon="31.0782163963"><ele>53.49</ele><time>2026-09-01T02:13:37Z</time></trkpt><trkpt lat="59.4852855429" lon="31.0781497601"><ele>53.49</ele><time>2026-09-01T02:13:49Z</time></trkpt><trkpt lat="59.4852787536" lon="31.0781240277"><ele>53.49</ele><time>2026-09-01T02:13:51Z</time></trkpt><trkpt lat="59.4852392748" lon="31.0780396219"><ele>53.49</ele><time>2026-09-01T02:13:56Z</time></trkpt><trkpt lat="59.4851615746" lon="31.0779695492"><ele>53.49</ele><time>2026-09-01T02:14:07Z</time></trkpt><trkpt lat="59.4851441402" lon="31.0779329203"><ele>53.49</ele><time>2026-09-01T02:14:12Z</time></trkpt><trkpt lat="59.4851153065" lon="31.0778630991"><ele>53.49</ele><time>2026-09-01T02:14:17Z</time></trkpt><trkpt lat="59.4850267936" lon="31.0777254682"><ele>53.49</ele><time>2026-09-01T02:14:30Z</time></trkpt><trkpt lat="59.4850207586" lon="31.0777190980"><ele>53.49</ele><time>2026-09-01T02:14:31Z</time></trkpt><trkpt lat="59.4849493448" lon="31.0776265617"><ele>53.49</ele><time>2026-09-01T02:14:42Z</time></trkpt><trkpt lat="59.4848614186" lon="31.0775464308"><ele>53.49</ele><time>2026-09-01T02:14:56Z</time></trkpt><trkpt lat="59.4848040864" lon="31.0775046889"><ele>53.49</ele><time>2026-09-01T02:15:06Z</time></trkpt><trkpt lat="59.4847801141" lon="31.0774972290"><ele>53.49</ele><time>2026-09-01T02:15:21Z</time></trkpt><trkpt lat="59.4847605843" lon="31.0775171779"><ele>53.49</ele><time>2026-09-01T02:15:53Z</time></trkpt><trkpt lat="59.4847684633" lon="31.0775164235"><ele>53.49</ele><time>2026-09-01T02:16:24Z</time></trkpt><trkpt lat="59.4847708941" lon="31.0774978995"><ele>53.01</ele><time>2026-09-01T02:16:45Z</time></trkpt><trkpt lat="59.4847628474" lon="31.0774907749"><ele>53.01</ele><time>2026-09-01T02:17:03Z</time></trkpt><trkpt lat="59.4847138133" lon="31.0774602648"><ele>53.01</ele><time>2026-09-01T02:17:18Z</time></trkpt><trkpt lat="59.4846061897" lon="31.0773383919"><ele>53.01</ele><time>2026-09-01T02:17:33Z</time></trkpt><trkpt lat="59.4844442513" lon="31.0771781299"><ele>53.01</ele><time>2026-09-01T02:17:49Z</time></trkpt><trkpt lat="59.4844109751" lon="31.0771366395"><ele>53.01</ele><time>2026-09-01T02:17:59Z</time></trkpt><trkpt lat="59.4843735918" lon="31.0770658962"><ele>52.53</ele><time>2026-09-01T02:18:09Z</time></trkpt><trkpt lat="59.4843397290" lon="31.0770248249"><ele>52.53</ele><time>2026-09-01T02:18:21Z</time></trkpt><trkpt lat="59.4842461869" lon="31.0768802371"><ele>52.53</ele><time>2026-09-01T02:18:32Z</time></trkpt><trkpt lat="59.4842274953" lon="31.0767279379"><ele>52.53</ele><time>2026-09-01T02:18:44Z</time></trkpt><trkpt lat="59.4841181953" lon="31.0765697714"><ele>52.53</ele><time>2026-09-01T02:18:58Z</time></trkpt><trkpt lat="59.4840409141" lon="31.0765183903"><ele>52.53</ele><time>2026-09-01T02:19:14Z</time></trkpt><trkpt lat="59.4839648902" lon="31.0764885508"><ele>52.53</ele><time>2026-09-01T02:19:27Z</time></trkpt><trkpt lat="59.4839544129" lon="31.0763976909"><ele>52.53</ele><time>2026-09-01T02:19:49Z</time></trkpt><trkpt lat="59.4838895369" lon="31.0762350820"><ele>52.53</ele><time>2026-09-01T02:19:58Z</time></trkpt><trkpt lat="59.4838488009" lon="31.0761419591"><ele>52.53</ele><time>2026-09-01T02:20:11Z</time></trkpt><trkpt lat="59.4837748725" lon="31.0760137159"><ele>52.53</ele><time>2026-09-01T02:20:21Z</time></trkpt><trkpt lat="59.4837475475" lon="31.0759576410"><ele>52.53</ele><time>2026-09-01T02:20:34Z</time></trkpt><trkpt lat="59.4836706016" lon="31.0758024082"><ele>52.05</ele><time>2026-09-01T02:20:46Z</time></trkpt><trkpt lat="59.4836042169" lon="31.0757118836"><ele>52.05</ele><time>2026-09-01T02:20:58Z</time></trkpt><trkpt lat="59.4835953321" lon="31.0757148173"><ele>52.05</ele><time>2026-09-01T02:21:14Z</time></trkpt><trkpt lat="59.4835004490" lon="31.0755567346"><ele>52.05</ele><time>2026-09-01T02:21:29Z</time></trkpt><trkpt lat="59.4834116846" lon="31.0753569938"><ele>52.05</ele><time>2026-09-01T02:21:42Z</time></trkpt><trkpt lat="59.4833725411" lon="31.0752565786"><ele>52.05</ele><time>2026-09-01T02:21:52Z</time></trkpt><trkpt lat="59.4833535142" lon="31.0752379708"><ele>52.05</ele><time>2026-09-01T02:22:05Z</time></trkpt><trkpt lat="59.4832953438" lon="31.0751240607"><ele>52.05</ele><time>2026-09-01T02:22:18Z</time></trkpt><trkpt lat="59.4832848664" lon="31.0750497971"><ele>52.05</ele><time>2026-09-01T02:22:39Z</time></trkpt><trkpt lat="59.4832602236" lon="31.0750139225"><ele>52.05</ele><time>2026-09-01T02:23:03Z</time></trkpt><trkpt lat="59.4832528476" lon="31.0749953147"><ele>52.05</ele><time>2026-09-01T02:23:29Z</time></trkpt><trkpt lat="59.4832504168" lon="31.0748695023"><ele>52.05</ele><time>2026-09-01T02:23:42Z</time></trkpt><trkpt lat="59.4831877202" lon="31.0745818354"><ele>53.01</ele><time>2026-09-01T02:23:54Z</time></trkpt><trkpt lat="59.4831630774" lon="31.0744392592"><ele>53.01</ele><time>2026-09-01T02:24:06Z</time></trkpt><trkpt lat="59.4830792584" lon="31.0742629040"><ele>53.01</ele><time>2026-09-01T02:24:20Z</time></trkpt><trkpt lat="59.4830230996" lon="31.0741549451"><ele>53.01</ele><time>2026-09-01T02:24:32Z</time></trkpt><trkpt lat="59.4829728920" lon="31.0741232615"><ele>53.01</ele><time>2026-09-01T02:24:44Z</time></trkpt><trkpt lat="59.4829507638" lon="31.0740939248"><ele>53.01</ele><time>2026-09-01T02:24:55Z</time></trkpt><trkpt lat="59.4829198346" lon="31.0740810167"><ele>53.01</ele><time>2026-09-01T02:24:58Z</time></trkpt><trkpt lat="59.4828506839" lon="31.0740608163"><ele>53.01</ele><time>2026-09-01T02:25:10Z</time></trkpt><trkpt lat="59.4828261249" lon="31.0740981158"><ele>53.01</ele><time>2026-09-01T02:25:25Z</time></trkpt><trkpt lat="59.4828112889" lon="31.0740738921"><ele>53.01</ele><time>2026-09-01T02:25:37Z</time></trkpt><trkpt lat="59.4828038290" lon="31.0740552004"><ele>53.01</ele><time>2026-09-01T02:25:57Z</time></trkpt><trkpt lat="59.4827606622" lon="31.0741311405"><ele>53.01</ele><time>2026-09-01T02:26:11Z</time></trkpt><trkpt lat="59.4827205129" lon="31.0741797555"><ele>53.01</ele><time>2026-09-01T02:26:28Z</time></trkpt><trkpt lat="59.4827297330" lon="31.0742043983"><ele>53.01</ele><time>2026-09-01T02:26:42Z</time></trkpt><trkpt lat="59.4827083591" lon="31.0741130356"><ele>53.01</ele><time>2026-09-01T02:26:54Z</time></trkpt><trkpt lat="59.4826563075" lon="31.0740263667"><ele>53.01</ele><time>2026-09-01T02:27:08Z</time></trkpt><trkpt lat="59.4826413039" lon="31.0739917494"><ele>53.01</ele><time>2026-09-01T02:27:19Z</time></trkpt><trkpt lat="59.4825651962" lon="31.0739535280"><ele>53.01</ele><time>2026-09-01T02:27:32Z</time></trkpt><trkpt lat="59.4825693872" lon="31.0739326570"><ele>53.01</ele><time>2026-09-01T02:27:50Z</time></trkpt><trkpt lat="59.4825776853" lon="31.0738450661"><ele>53.01</ele><time>2026-09-01T02:28:03Z</time></trkpt><trkpt lat="59.4825646933" lon="31.0738181602"><ele>53.01</ele><time>2026-09-01T02:28:25Z</time></trkpt><trkpt lat="59.4825537130" lon="31.0737925116"><ele>53.49</ele><time>2026-09-01T02:28:57Z</time></trkpt><trkpt lat="59.4825621787" lon="31.0737658571"><ele>53.49</ele><time>2026-09-01T02:29:15Z</time></trkpt><trkpt lat="59.4825620949" lon="31.0736121330"><ele>53.49</ele><time>2026-09-01T02:29:29Z</time></trkpt><trkpt lat="59.4825700577" lon="31.0734198522"><ele>53.49</ele><time>2026-09-01T02:29:38Z</time></trkpt><trkpt lat="59.4825911801" lon="31.0732721630"><ele>53.49</ele><time>2026-09-01T02:29:56Z</time></trkpt><trkpt lat="59.4825719856" lon="31.0731457639"><ele>53.49</ele><time>2026-09-01T02:30:10Z</time></trkpt><trkpt lat="59.4825623464" lon="31.0729968175"><ele>53.49</ele><time>2026-09-01T02:30:23Z</time></trkpt><trkpt lat="59.4825336803" lon="31.0728057101"><ele>53.49</ele><time>2026-09-01T02:30:38Z</time></trkpt><trkpt lat="59.4825329259" lon="31.0726715997"><ele>53.49</ele><time>2026-09-01T02:30:52Z</time></trkpt><trkpt lat="59.4825398829" lon="31.0725462064"><ele>53.97</ele><time>2026-09-01T02:31:08Z</time></trkpt><trkpt lat="59.4825375360" lon="31.0724011157"><ele>53.97</ele><time>2026-09-01T02:31:23Z</time></trkpt><trkpt lat="59.4825474266" lon="31.0723379999"><ele>53.97</ele><time>2026-09-01T02:31:35Z</time></trkpt><trkpt lat="59.4825563952" lon="31.0723035503"><ele>53.97</ele><time>2026-09-01T02:31:57Z</time></trkpt><trkpt lat="59.4825651962" lon="31.0722017940"><ele>53.97</ele><time>2026-09-01T02:32:11Z</time></trkpt><trkpt lat="59.4825783558" lon="31.0721066594"><ele>53.97</ele><time>2026-09-01T02:32:23Z</time></trkpt><trkpt lat="59.4826128054" lon="31.0719242692"><ele>53.97</ele><time>2026-09-01T02:32:41Z</time></trkpt><trkpt lat="59.4826156553" lon="31.0718024801"><ele>53.97</ele><time>2026-09-01T02:32:54Z</time></trkpt><trkpt lat="59.4826157391" lon="31.0717490036"><ele>53.97</ele><time>2026-09-01T02:33:03Z</time></trkpt><trkpt lat="59.4826300722" lon="31.0717127938"><ele>53.97</ele><time>2026-09-01T02:33:16Z</time></trkpt><trkpt lat="59.4826804474" lon="31.0716242809"><ele>54.45</ele><time>2026-09-01T02:33:28Z</time></trkpt><trkpt lat="59.4827385340" lon="31.0714847222"><ele>54.45</ele><time>2026-09-01T02:33:41Z</time></trkpt><trkpt lat="59.4827657752" lon="31.0714313295"><ele>54.45</ele><time>2026-09-01T02:33:53Z</time></trkpt><trkpt lat="59.4827925973" lon="31.0714219417"><ele>54.45</ele><time>2026-09-01T02:34:13Z</time></trkpt><trkpt lat="59.4827936031" lon="31.0713206045"><ele>54.45</ele><time>2026-09-01T02:34:25Z</time></trkpt><trkpt lat="59.4827950280" lon="31.0712773539"><ele>54.45</ele><time>2026-09-01T02:34:45Z</time></trkpt><trkpt lat="59.4828065112" lon="31.0712475982"><ele>54.45</ele><time>2026-09-01T02:35:00Z</time></trkpt><trkpt lat="59.4828089420" lon="31.0712289903"><ele>54.45</ele><time>2026-09-01T02:35:11Z</time></trkpt><trkpt lat="59.4828122947" lon="31.0712258052"><ele>54.45</ele><time>2026-09-01T02:35:13Z</time></trkpt><trkpt lat="59.4828255381" lon="31.0711556487"><ele>54.45</ele><time>2026-09-01T02:35:27Z</time></trkpt><trkpt lat="59.4828188326" lon="31.0711513739"><ele>54.45</ele><time>2026-09-01T02:35:55Z</time></trkpt><trkpt lat="59.4828167371" lon="31.0711560678"><ele>54.45</ele><time>2026-09-01T02:36:24Z</time></trkpt><trkpt lat="59.4828221854" lon="31.0711382143"><ele>53.97</ele><time>2026-09-01T02:36:51Z</time></trkpt><trkpt lat="59.4828258734" lon="31.0711381305"><ele>53.97</ele><time>2026-09-01T02:37:14Z</time></trkpt><trkpt lat="59.4828225207" lon="31.0711393878"><ele>53.97</ele><time>2026-09-01T02:37:42Z</time></trkpt><trkpt lat="59.4828074332" lon="31.0711034294"><ele>53.97</ele><time>2026-09-01T02:38:06Z</time></trkpt><trkpt lat="59.4828116242" lon="31.0710890964"><ele>53.97</ele><time>2026-09-01T02:38:34Z</time></trkpt><trkpt lat="59.4828132167" lon="31.0711009987"><ele>53.97</ele><time>2026-09-01T02:39:03Z</time></trkpt><trkpt lat="59.4828271307" lon="31.0711461771"><ele>53.97</ele><time>2026-09-01T02:39:40Z</time></trkpt><trkpt lat="59.4828312378" lon="31.0711431596"><ele>53.97</ele><time>2026-09-01T02:40:03Z</time></trkpt><trkpt lat="59.4828392845" lon="31.0711278208"><ele>53.97</ele><time>2026-09-01T02:40:39Z</time></trkpt><trkpt lat="59.4828418829" lon="31.0711403936"><ele>53.97</ele><time>2026-09-01T02:41:17Z</time></trkpt><trkpt lat="59.4828445651" lon="31.0711446684"><ele>53.49</ele><time>2026-09-01T02:41:49Z</time></trkpt><trkpt lat="59.4828537852" lon="31.0711500328"><ele>53.49</ele><time>2026-09-01T02:42:23Z</time></trkpt><trkpt lat="59.4828592334" lon="31.0711552296"><ele>53.49</ele><time>2026-09-01T02:42:56Z</time></trkpt><trkpt lat="59.4828557968" lon="31.0711543076"><ele>53.49</ele><time>2026-09-01T02:43:30Z</time></trkpt><trkpt lat="59.4828558806" lon="31.0711600911"><ele>53.49</ele><time>2026-09-01T02:44:00Z</time></trkpt><trkpt lat="59.4828661904" lon="31.0711766034"><ele>53.01</ele><time>2026-09-01T02:44:39Z</time></trkpt><trkpt lat="59.4828638434" lon="31.0711844824"><ele>53.01</ele><time>2026-09-01T02:45:16Z</time></trkpt><trkpt lat="59.4828543719" lon="31.0711992346"><ele>53.01</ele><time>2026-09-01T02:45:40Z</time></trkpt><trkpt lat="59.4828500133" lon="31.0711976420"><ele>53.01</ele><time>2026-09-01T02:46:08Z</time></trkpt><trkpt lat="59.4828509353" lon="31.0711961333"><ele>53.01</ele><time>2026-09-01T02:46:44Z</time></trkpt><trkpt lat="59.4828479178" lon="31.0711815488"><ele>53.01</ele><time>2026-09-01T02:47:07Z</time></trkpt></trkseg></trk></gpx>